ELY15 LLBG-KBOS
Flight info
| Callsign | ELY15 |
|---|---|
| Flight time | N/A |
| Altitude | 36000 |
| Route | SUVAS N128 OTHON UN128 YOYYO UN618 IMR UN128 LMO DCT EVIVI L863 OKANA DCT NIVIS DCT BABIT DCT SOGMO DCT SASAL DCT DEXIT DCT INBED DCT BOMBI/N0480F380 DCT ADKUV DCT BUB L608 DENUT L610 KOPUL Q60 OKSAW DCT FELCA DCT FADZU DCT BANBA DCT LIMRI/M083F390 DCT 5230N02000W 5230N03000W 52N040W 4930N05000W DCT IBERG/N0474F400 N364A TUSKY DCT EURRO OOSHN5 |
| Aircraft | B772/H-SDE2E3FGHIJ5LORVWXY/LB1D1 |
Departure
| Time | 2026-05-06 13:51 |
|---|---|
| Airport | Ben Gurion International Airport (LLBG) |
Arrival
| Time | N/A |
|---|---|
| Airport | Boston Logan International Airport (KBOS) |
| Time | Latitude | Longitude | Altitude | Speed | Heading |
|---|---|---|---|---|---|
| 2026-05-06 13:26 | 32.00322 | 34.87626 | 124 ft | 0 kts | 316° |
| 2026-05-06 13:40 | 32.00317 | 34.87632 | 124 ft | 3 kts | 316° |
| 2026-05-06 13:40 | 32.00302 | 34.87649 | 119 ft | 3 kts | 316° |
| 2026-05-06 13:40 | 32.00288 | 34.87665 | 119 ft | 3 kts | 318° |
| 2026-05-06 13:40 | 32.00273 | 34.87678 | 120 ft | 3 kts | 345° |
| 2026-05-06 13:41 | 32.00255 | 34.87679 | 119 ft | 3 kts | 22° |
| 2026-05-06 13:41 | 32.00239 | 34.87670 | 120 ft | 2 kts | 31° |
| 2026-05-06 13:41 | 32.00236 | 34.87668 | 120 ft | 0 kts | 31° |
| 2026-05-06 13:44 | 32.00243 | 34.87673 | 119 ft | 5 kts | 31° |
| 2026-05-06 13:44 | 32.00279 | 34.87699 | 119 ft | 7 kts | 31° |
| 2026-05-06 13:44 | 32.00325 | 34.87731 | 121 ft | 8 kts | 31° |
| 2026-05-06 13:44 | 32.00380 | 34.87770 | 121 ft | 10 kts | 31° |
| 2026-05-06 13:45 | 32.00446 | 34.87816 | 121 ft | 12 kts | 31° |
| 2026-05-06 13:45 | 32.00651 | 34.87963 | 120 ft | 24 kts | 31° |
| 2026-05-06 13:45 | 32.00810 | 34.88077 | 121 ft | 28 kts | 32° |
| 2026-05-06 13:46 | 32.00975 | 34.88198 | 121 ft | 28 kts | 32° |
| 2026-05-06 13:46 | 32.01140 | 34.88318 | 121 ft | 28 kts | 31° |
| 2026-05-06 13:46 | 32.01296 | 34.88443 | 120 ft | 26 kts | 41° |
| 2026-05-06 13:46 | 32.01411 | 34.88599 | 120 ft | 24 kts | 57° |
| 2026-05-06 13:47 | 32.01481 | 34.88779 | 120 ft | 24 kts | 74° |
| 2026-05-06 13:47 | 32.01517 | 34.88974 | 120 ft | 24 kts | 79° |
| 2026-05-06 13:47 | 32.01549 | 34.89170 | 119 ft | 24 kts | 79° |
| 2026-05-06 13:47 | 32.01579 | 34.89367 | 120 ft | 24 kts | 80° |
| 2026-05-06 13:48 | 32.01607 | 34.89561 | 121 ft | 24 kts | 80° |
| 2026-05-06 13:48 | 32.01643 | 34.89678 | 121 ft | 6 kts | 40° |
| 2026-05-06 13:48 | 32.01648 | 34.89682 | 120 ft | 0 kts | 33° |
| 2026-05-06 13:49 | 32.01651 | 34.89685 | 122 ft | 5 kts | 31° |
| 2026-05-06 13:49 | 32.01721 | 34.89728 | 119 ft | 16 kts | 28° |
| 2026-05-06 13:49 | 32.01827 | 34.89758 | 117 ft | 9 kts | 329° |
| 2026-05-06 13:49 | 32.01840 | 34.89715 | 119 ft | 8 kts | 270° |
| 2026-05-06 13:50 | 32.01814 | 34.89540 | 122 ft | 46 kts | 260° |
| 2026-05-06 13:50 | 32.01720 | 34.88934 | 123 ft | 103 kts | 259° |
| 2026-05-06 13:50 | 32.01562 | 34.87902 | 122 ft | 151 kts | 260° |
| 2026-05-06 13:50 | 32.01358 | 34.86563 | 414 ft | 164 kts | 262° |
| 2026-05-06 13:51 | 32.01129 | 34.85267 | 1041 ft | 164 kts | 263° |
| 2026-05-06 13:51 | 32.00906 | 34.83915 | 1542 ft | 175 kts | 260° |
| 2026-05-06 13:51 | 32.00607 | 34.82479 | 1883 ft | 188 kts | 258° |
| 2026-05-06 13:51 | 32.00276 | 34.80914 | 2029 ft | 205 kts | 258° |
| 2026-05-06 13:52 | 31.99915 | 34.79203 | 2136 ft | 225 kts | 258° |
| 2026-05-06 13:52 | 31.99523 | 34.77345 | 2426 ft | 236 kts | 258° |
| 2026-05-06 13:52 | 31.99263 | 34.76089 | 2747 ft | 236 kts | 261° |
| 2026-05-06 13:52 | 31.99326 | 34.74179 | 3104 ft | 237 kts | 290° |
| 2026-05-06 13:53 | 32.00124 | 34.71778 | 3562 ft | 245 kts | 290° |
| 2026-05-06 13:53 | 32.00710 | 34.69885 | 4082 ft | 246 kts | 289° |
| 2026-05-06 13:53 | 32.01301 | 34.67974 | 4580 ft | 249 kts | 289° |
| 2026-05-06 13:53 | 32.01700 | 34.66689 | 4866 ft | 253 kts | 289° |
| 2026-05-06 13:54 | 32.02309 | 34.64731 | 5331 ft | 256 kts | 289° |
| 2026-05-06 13:54 | 32.02785 | 34.62726 | 5792 ft | 255 kts | 276° |
| 2026-05-06 13:54 | 32.02905 | 34.60625 | 6226 ft | 259 kts | 272° |
| 2026-05-06 13:54 | 32.02973 | 34.58500 | 6717 ft | 259 kts | 272° |
| 2026-05-06 13:55 | 32.03059 | 34.56385 | 7205 ft | 259 kts | 273° |
| 2026-05-06 13:55 | 32.03161 | 34.54249 | 7610 ft | 263 kts | 273° |
| 2026-05-06 13:55 | 32.03270 | 34.52078 | 7988 ft | 268 kts | 273° |
| 2026-05-06 13:55 | 32.03383 | 34.49863 | 8384 ft | 272 kts | 274° |
| 2026-05-06 13:56 | 32.03498 | 34.47664 | 8868 ft | 273 kts | 274° |
| 2026-05-06 13:56 | 32.03615 | 34.45432 | 9373 ft | 273 kts | 274° |
| 2026-05-06 13:56 | 32.03736 | 34.43195 | 9866 ft | 274 kts | 274° |
| 2026-05-06 13:56 | 32.03865 | 34.40940 | 10213 ft | 280 kts | 274° |
| 2026-05-06 13:57 | 32.04001 | 34.38587 | 10322 ft | 295 kts | 274° |
| 2026-05-06 13:57 | 32.04144 | 34.36107 | 10457 ft | 312 kts | 274° |
| 2026-05-06 13:57 | 32.04294 | 34.33487 | 10575 ft | 329 kts | 274° |
| 2026-05-06 13:57 | 32.04452 | 34.30727 | 10728 ft | 346 kts | 274° |
| 2026-05-06 13:58 | 32.04615 | 34.27849 | 11127 ft | 356 kts | 274° |
| 2026-05-06 13:58 | 32.04784 | 34.24920 | 11666 ft | 358 kts | 275° |
| 2026-05-06 13:58 | 32.05336 | 34.22052 | 12176 ft | 365 kts | 292° |
| 2026-05-06 13:58 | 32.06571 | 34.19479 | 12816 ft | 366 kts | 300° |
| 2026-05-06 13:59 | 32.07916 | 34.16910 | 13514 ft | 370 kts | 299° |
| 2026-05-06 13:59 | 32.09260 | 34.14319 | 14278 ft | 371 kts | 299° |
| 2026-05-06 13:59 | 32.10598 | 34.11718 | 15009 ft | 372 kts | 299° |
| 2026-05-06 13:59 | 32.11937 | 34.09095 | 15717 ft | 374 kts | 298° |
| 2026-05-06 14:00 | 32.13281 | 34.06450 | 16391 ft | 377 kts | 298° |
| 2026-05-06 14:00 | 32.14634 | 34.03782 | 17092 ft | 380 kts | 298° |
| 2026-05-06 14:00 | 32.15994 | 34.01094 | 17801 ft | 383 kts | 298° |
| 2026-05-06 14:00 | 32.17384 | 33.98399 | 18480 ft | 386 kts | 300° |
| 2026-05-06 14:01 | 32.18898 | 33.95765 | 19105 ft | 389 kts | 302° |
| 2026-05-06 14:01 | 32.20477 | 33.93163 | 19759 ft | 391 kts | 303° |
| 2026-05-06 14:01 | 32.22086 | 33.90553 | 20403 ft | 393 kts | 302° |
| 2026-05-06 14:01 | 32.23685 | 33.87955 | 21031 ft | 395 kts | 302° |
| 2026-05-06 14:02 | 32.25301 | 33.85316 | 21631 ft | 397 kts | 302° |
| 2026-05-06 14:02 | 32.26920 | 33.82654 | 22232 ft | 400 kts | 302° |
| 2026-05-06 14:02 | 32.28545 | 33.79969 | 22784 ft | 402 kts | 301° |
| 2026-05-06 14:02 | 32.30174 | 33.77267 | 23330 ft | 405 kts | 301° |
| 2026-05-06 14:03 | 32.31811 | 33.74544 | 23811 ft | 407 kts | 301° |
| 2026-05-06 14:03 | 32.33457 | 33.71800 | 24250 ft | 410 kts | 301° |
| 2026-05-06 14:03 | 32.35109 | 33.69046 | 24681 ft | 411 kts | 301° |
| 2026-05-06 14:03 | 32.36771 | 33.66272 | 25086 ft | 414 kts | 301° |
| 2026-05-06 14:04 | 32.38437 | 33.63488 | 25481 ft | 416 kts | 301° |
| 2026-05-06 14:04 | 32.40091 | 33.60723 | 25861 ft | 418 kts | 301° |
| 2026-05-06 14:04 | 32.41774 | 33.57909 | 26229 ft | 420 kts | 301° |
| 2026-05-06 14:04 | 32.43466 | 33.55075 | 26590 ft | 422 kts | 301° |
| 2026-05-06 14:05 | 32.45166 | 33.52228 | 26922 ft | 424 kts | 301° |
| 2026-05-06 14:05 | 32.46876 | 33.49361 | 27242 ft | 427 kts | 301° |
| 2026-05-06 14:05 | 32.48595 | 33.46476 | 27571 ft | 429 kts | 301° |
| 2026-05-06 14:05 | 32.50318 | 33.43584 | 27878 ft | 430 kts | 301° |
| 2026-05-06 14:06 | 32.52049 | 33.40676 | 28169 ft | 432 kts | 301° |
| 2026-05-06 14:06 | 32.53788 | 33.37752 | 28460 ft | 434 kts | 301° |
| 2026-05-06 14:06 | 32.55529 | 33.34821 | 28713 ft | 436 kts | 301° |
| 2026-05-06 14:06 | 32.57279 | 33.31874 | 28951 ft | 438 kts | 301° |
| 2026-05-06 14:07 | 32.59009 | 33.28958 | 29195 ft | 439 kts | 301° |
| 2026-05-06 14:07 | 32.60768 | 33.25992 | 29418 ft | 440 kts | 301° |
| 2026-05-06 14:07 | 32.62534 | 33.23009 | 29635 ft | 442 kts | 301° |
| 2026-05-06 14:07 | 32.64302 | 33.20022 | 29820 ft | 443 kts | 301° |
| 2026-05-06 14:08 | 32.66078 | 33.17020 | 30033 ft | 444 kts | 301° |
| 2026-05-06 14:08 | 32.67847 | 33.14026 | 30277 ft | 443 kts | 301° |
| 2026-05-06 14:08 | 32.69614 | 33.11036 | 30520 ft | 442 kts | 301° |
| 2026-05-06 14:08 | 32.71379 | 33.08046 | 30766 ft | 441 kts | 301° |
| 2026-05-06 14:09 | 32.73140 | 33.05058 | 30964 ft | 441 kts | 301° |
| 2026-05-06 14:09 | 32.74874 | 33.02116 | 31161 ft | 440 kts | 301° |
| 2026-05-06 14:09 | 32.76628 | 32.99134 | 31388 ft | 440 kts | 301° |
| 2026-05-06 14:09 | 32.78377 | 32.96160 | 31592 ft | 439 kts | 301° |
| 2026-05-06 14:10 | 32.80124 | 32.93187 | 31817 ft | 438 kts | 301° |
| 2026-05-06 14:10 | 32.81871 | 32.90213 | 32010 ft | 438 kts | 301° |
| 2026-05-06 14:10 | 32.83609 | 32.87250 | 32207 ft | 437 kts | 301° |
| 2026-05-06 14:10 | 32.85349 | 32.84282 | 32409 ft | 436 kts | 301° |
| 2026-05-06 14:11 | 32.87084 | 32.81321 | 32621 ft | 436 kts | 301° |
| 2026-05-06 14:11 | 32.88816 | 32.78361 | 32831 ft | 435 kts | 301° |
| 2026-05-06 14:11 | 32.90544 | 32.75406 | 33016 ft | 434 kts | 301° |
| 2026-05-06 14:11 | 32.92269 | 32.72454 | 33210 ft | 434 kts | 302° |
| 2026-05-06 14:12 | 32.93969 | 32.69542 | 33405 ft | 433 kts | 302° |
| 2026-05-06 14:12 | 32.95692 | 32.66589 | 33622 ft | 433 kts | 302° |
| 2026-05-06 14:12 | 32.97406 | 32.63650 | 33827 ft | 432 kts | 302° |
| 2026-05-06 14:12 | 32.99115 | 32.60715 | 34024 ft | 431 kts | 302° |
| 2026-05-06 14:13 | 33.00828 | 32.57773 | 34187 ft | 431 kts | 302° |
| 2026-05-06 14:13 | 33.02536 | 32.54836 | 34324 ft | 431 kts | 302° |
| 2026-05-06 14:13 | 33.04243 | 32.51898 | 34470 ft | 431 kts | 302° |
| 2026-05-06 14:13 | 33.05946 | 32.48966 | 34632 ft | 430 kts | 302° |
| 2026-05-06 14:14 | 33.07648 | 32.46031 | 34778 ft | 430 kts | 302° |
| 2026-05-06 14:14 | 33.09352 | 32.43092 | 34912 ft | 430 kts | 302° |
| 2026-05-06 14:14 | 33.11053 | 32.40156 | 35055 ft | 430 kts | 302° |
| 2026-05-06 14:14 | 33.12753 | 32.37220 | 35196 ft | 430 kts | 302° |
| 2026-05-06 14:15 | 33.14451 | 32.34284 | 35335 ft | 430 kts | 302° |
| 2026-05-06 14:15 | 33.16147 | 32.31349 | 35476 ft | 430 kts | 302° |
| 2026-05-06 14:15 | 33.17841 | 32.28416 | 35611 ft | 429 kts | 302° |
| 2026-05-06 14:15 | 33.19535 | 32.25480 | 35749 ft | 429 kts | 302° |
| 2026-05-06 14:16 | 33.21230 | 32.22541 | 35873 ft | 429 kts | 302° |
| 2026-05-06 14:16 | 33.22897 | 32.19646 | 35977 ft | 430 kts | 302° |
| 2026-05-06 14:16 | 33.26289 | 32.13751 | 36071 ft | 431 kts | 302° |
| 2026-05-06 14:17 | 33.29680 | 32.07849 | 36073 ft | 430 kts | 302° |
| 2026-05-06 14:17 | 33.33065 | 32.01946 | 36075 ft | 429 kts | 302° |
| 2026-05-06 14:18 | 33.36438 | 31.96057 | 36077 ft | 429 kts | 302° |
| 2026-05-06 14:18 | 33.39784 | 31.90204 | 36077 ft | 428 kts | 302° |
| 2026-05-06 14:19 | 33.43149 | 31.84308 | 36075 ft | 428 kts | 302° |
| 2026-05-06 14:19 | 33.46509 | 31.78413 | 36079 ft | 427 kts | 302° |
| 2026-05-06 14:20 | 33.49843 | 31.72561 | 36078 ft | 427 kts | 302° |
| 2026-05-06 14:20 | 33.53188 | 31.66680 | 36072 ft | 427 kts | 302° |
| 2026-05-06 14:21 | 33.56535 | 31.60786 | 36075 ft | 427 kts | 302° |
| 2026-05-06 14:21 | 33.59875 | 31.54893 | 36076 ft | 427 kts | 302° |
| 2026-05-06 14:22 | 33.63209 | 31.49002 | 36078 ft | 427 kts | 302° |
| 2026-05-06 14:22 | 33.66522 | 31.43139 | 36074 ft | 427 kts | 302° |
| 2026-05-06 14:23 | 33.69852 | 31.37236 | 36077 ft | 427 kts | 302° |
| 2026-05-06 14:23 | 33.73183 | 31.31322 | 36070 ft | 427 kts | 302° |
| 2026-05-06 14:24 | 33.76517 | 31.25392 | 36062 ft | 427 kts | 302° |
| 2026-05-06 14:24 | 33.79847 | 31.19461 | 36081 ft | 428 kts | 302° |
| 2026-05-06 14:25 | 33.83174 | 31.13524 | 36081 ft | 428 kts | 302° |
| 2026-05-06 14:25 | 33.86475 | 31.07624 | 36077 ft | 428 kts | 302° |
| 2026-05-06 14:26 | 33.89801 | 31.01669 | 36079 ft | 428 kts | 302° |
| 2026-05-06 14:26 | 33.93126 | 30.95707 | 36070 ft | 428 kts | 302° |
| 2026-05-06 14:27 | 33.96424 | 30.89784 | 36065 ft | 428 kts | 302° |
| 2026-05-06 14:27 | 33.99736 | 30.83822 | 36067 ft | 428 kts | 302° |
| 2026-05-06 14:28 | 34.03044 | 30.77853 | 36071 ft | 428 kts | 302° |
| 2026-05-06 14:28 | 34.06355 | 30.71871 | 36070 ft | 428 kts | 302° |
| 2026-05-06 14:29 | 34.09660 | 30.65890 | 36086 ft | 428 kts | 302° |
| 2026-05-06 14:29 | 34.12960 | 30.59906 | 36074 ft | 428 kts | 302° |
| 2026-05-06 14:30 | 34.16259 | 30.53915 | 36070 ft | 428 kts | 302° |
| 2026-05-06 14:30 | 34.19536 | 30.47955 | 36071 ft | 428 kts | 302° |
| 2026-05-06 14:31 | 34.22830 | 30.41953 | 36071 ft | 428 kts | 302° |
| 2026-05-06 14:31 | 34.26119 | 30.35952 | 36072 ft | 428 kts | 302° |
| 2026-05-06 14:32 | 34.29401 | 30.29950 | 36071 ft | 428 kts | 302° |
| 2026-05-06 14:32 | 34.32683 | 30.23941 | 36071 ft | 428 kts | 302° |
| 2026-05-06 14:33 | 34.35963 | 30.17924 | 36076 ft | 428 kts | 302° |
| 2026-05-06 14:33 | 34.39219 | 30.11941 | 36074 ft | 428 kts | 302° |
| 2026-05-06 14:34 | 34.42491 | 30.05919 | 36073 ft | 428 kts | 302° |
| 2026-05-06 14:34 | 34.45888 | 29.99988 | 36077 ft | 428 kts | 307° |
| 2026-05-06 14:35 | 34.49946 | 29.94695 | 36079 ft | 429 kts | 313° |
| 2026-05-06 14:35 | 34.54159 | 29.89553 | 36072 ft | 429 kts | 313° |
| 2026-05-06 14:36 | 34.58359 | 29.84390 | 36069 ft | 429 kts | 313° |
| 2026-05-06 14:36 | 34.62550 | 29.79211 | 36071 ft | 429 kts | 313° |
| 2026-05-06 14:37 | 34.66713 | 29.74053 | 36071 ft | 429 kts | 313° |
| 2026-05-06 14:37 | 34.70891 | 29.68868 | 36070 ft | 429 kts | 313° |
| 2026-05-06 14:38 | 34.75071 | 29.63674 | 36068 ft | 429 kts | 313° |
| 2026-05-06 14:38 | 34.79245 | 29.58478 | 36072 ft | 429 kts | 313° |
| 2026-05-06 14:39 | 34.83419 | 29.53275 | 36072 ft | 429 kts | 313° |
| 2026-05-06 14:39 | 34.87560 | 29.48104 | 36071 ft | 429 kts | 313° |
| 2026-05-06 14:40 | 34.91720 | 29.42902 | 36069 ft | 428 kts | 313° |
| 2026-05-06 14:40 | 34.95882 | 29.37691 | 36066 ft | 428 kts | 313° |
| 2026-05-06 14:41 | 35.00148 | 29.32622 | 36069 ft | 429 kts | 318° |
| 2026-05-06 14:41 | 35.04928 | 29.28216 | 36072 ft | 430 kts | 321° |
| 2026-05-06 14:42 | 35.09704 | 29.23901 | 36067 ft | 430 kts | 321° |
| 2026-05-06 14:42 | 35.14503 | 29.19536 | 36069 ft | 430 kts | 321° |
| 2026-05-06 14:43 | 35.19299 | 29.15153 | 36062 ft | 430 kts | 321° |
| 2026-05-06 14:43 | 35.24092 | 29.10761 | 36066 ft | 430 kts | 321° |
| 2026-05-06 14:44 | 35.28068 | 29.07111 | 36064 ft | 430 kts | 321° |
| 2026-05-06 14:45 | 35.35252 | 29.00507 | 36064 ft | 430 kts | 321° |
| 2026-05-06 14:45 | 35.40032 | 28.96105 | 36064 ft | 429 kts | 321° |
| 2026-05-06 14:46 | 35.44807 | 28.91700 | 36061 ft | 429 kts | 321° |
| 2026-05-06 14:46 | 35.49580 | 28.87291 | 36060 ft | 429 kts | 321° |
| 2026-05-06 14:47 | 35.54317 | 28.82908 | 36061 ft | 429 kts | 321° |
| 2026-05-06 14:47 | 35.59082 | 28.78493 | 36060 ft | 429 kts | 321° |
| 2026-05-06 14:48 | 35.63846 | 28.74072 | 36060 ft | 429 kts | 321° |
| 2026-05-06 14:48 | 35.68603 | 28.69650 | 36057 ft | 429 kts | 321° |
| 2026-05-06 14:49 | 35.73362 | 28.65220 | 36056 ft | 429 kts | 321° |
| 2026-05-06 14:49 | 35.78119 | 28.60785 | 36057 ft | 428 kts | 321° |
| 2026-05-06 14:50 | 35.82867 | 28.56352 | 36058 ft | 428 kts | 321° |
| 2026-05-06 14:50 | 35.87619 | 28.51907 | 36052 ft | 428 kts | 321° |
| 2026-05-06 14:51 | 35.92330 | 28.47494 | 36053 ft | 428 kts | 321° |
| 2026-05-06 14:51 | 35.97068 | 28.43048 | 36051 ft | 428 kts | 321° |
| 2026-05-06 14:52 | 36.01810 | 28.38594 | 36048 ft | 427 kts | 321° |
| 2026-05-06 14:52 | 36.06544 | 28.34145 | 36050 ft | 427 kts | 321° |
| 2026-05-06 14:53 | 36.11278 | 28.29690 | 36045 ft | 427 kts | 321° |
| 2026-05-06 14:53 | 36.15978 | 28.25259 | 36046 ft | 427 kts | 321° |
| 2026-05-06 14:54 | 36.20701 | 28.20799 | 36048 ft | 427 kts | 321° |
| 2026-05-06 14:54 | 36.25420 | 28.16335 | 36049 ft | 427 kts | 321° |
| 2026-05-06 14:55 | 36.30148 | 28.11857 | 36050 ft | 428 kts | 321° |
| 2026-05-06 14:55 | 36.35084 | 28.07702 | 36057 ft | 430 kts | 328° |
| 2026-05-06 14:56 | 36.40475 | 28.04520 | 36054 ft | 433 kts | 333° |
| 2026-05-06 14:56 | 36.45982 | 28.01481 | 36048 ft | 433 kts | 333° |
| 2026-05-06 14:57 | 36.51487 | 27.98415 | 36050 ft | 433 kts | 334° |
| 2026-05-06 14:57 | 36.57061 | 27.95531 | 36036 ft | 433 kts | 334° |
| 2026-05-06 14:58 | 36.62609 | 27.92679 | 36039 ft | 433 kts | 334° |
| 2026-05-06 14:58 | 36.68165 | 27.89785 | 36039 ft | 432 kts | 334° |
| 2026-05-06 14:59 | 36.73706 | 27.86873 | 36045 ft | 432 kts | 334° |
| 2026-05-06 14:59 | 36.79225 | 27.83915 | 36049 ft | 431 kts | 334° |
| 2026-05-06 15:00 | 36.84727 | 27.80954 | 36046 ft | 430 kts | 334° |
| 2026-05-06 15:00 | 36.90189 | 27.78016 | 36049 ft | 430 kts | 334° |
| 2026-05-06 15:01 | 36.95677 | 27.75062 | 36050 ft | 429 kts | 334° |
| 2026-05-06 15:01 | 37.01159 | 27.72108 | 36051 ft | 428 kts | 334° |
| 2026-05-06 15:02 | 37.06631 | 27.69155 | 36054 ft | 428 kts | 334° |
| 2026-05-06 15:02 | 37.12108 | 27.66193 | 36053 ft | 428 kts | 334° |
| 2026-05-06 15:03 | 37.17582 | 27.63228 | 36055 ft | 428 kts | 334° |
| 2026-05-06 15:03 | 37.23007 | 27.60286 | 36042 ft | 427 kts | 334° |
| 2026-05-06 15:04 | 37.28469 | 27.57319 | 36047 ft | 427 kts | 334° |
| 2026-05-06 15:04 | 37.33960 | 27.54436 | 36048 ft | 427 kts | 335° |
| 2026-05-06 15:05 | 37.39450 | 27.51601 | 36059 ft | 426 kts | 335° |
| 2026-05-06 15:05 | 37.44913 | 27.48759 | 36051 ft | 427 kts | 335° |
| 2026-05-06 15:06 | 37.50409 | 27.45887 | 36051 ft | 427 kts | 334° |
| 2026-05-06 15:06 | 37.55815 | 27.42772 | 36057 ft | 427 kts | 332° |
| 2026-05-06 15:07 | 37.61192 | 27.39592 | 36052 ft | 427 kts | 333° |
| 2026-05-06 15:07 | 37.66628 | 27.36507 | 36058 ft | 428 kts | 334° |
| 2026-05-06 15:08 | 37.72095 | 27.33548 | 36078 ft | 427 kts | 334° |
| 2026-05-06 15:08 | 37.77533 | 27.30600 | 36069 ft | 428 kts | 334° |
| 2026-05-06 15:09 | 37.83005 | 27.27610 | 36068 ft | 428 kts | 334° |
| 2026-05-06 15:09 | 37.88472 | 27.24609 | 36072 ft | 429 kts | 334° |
| 2026-05-06 15:10 | 37.93949 | 27.21596 | 36078 ft | 429 kts | 334° |
| 2026-05-06 15:10 | 37.99424 | 27.18581 | 36075 ft | 429 kts | 334° |
| 2026-05-06 15:11 | 38.04863 | 27.15579 | 36071 ft | 429 kts | 334° |
| 2026-05-06 15:11 | 38.10343 | 27.12552 | 36053 ft | 429 kts | 334° |
| 2026-05-06 15:12 | 38.15794 | 27.09534 | 36042 ft | 429 kts | 334° |
| 2026-05-06 15:12 | 38.21266 | 27.06500 | 36051 ft | 429 kts | 334° |
| 2026-05-06 15:13 | 38.26739 | 27.03461 | 36047 ft | 429 kts | 334° |
| 2026-05-06 15:13 | 38.31971 | 26.99878 | 36050 ft | 426 kts | 326° |
| 2026-05-06 15:14 | 38.36688 | 26.95307 | 36056 ft | 426 kts | 319° |
| 2026-05-06 15:14 | 38.41162 | 26.90329 | 36049 ft | 427 kts | 319° |
| 2026-05-06 15:15 | 38.45602 | 26.85368 | 36050 ft | 428 kts | 319° |
| 2026-05-06 15:15 | 38.50096 | 26.80370 | 36055 ft | 428 kts | 319° |
| 2026-05-06 15:16 | 38.54595 | 26.75373 | 36052 ft | 429 kts | 319° |
| 2026-05-06 15:16 | 38.59099 | 26.70366 | 36054 ft | 429 kts | 319° |
| 2026-05-06 15:17 | 38.63604 | 26.65348 | 36056 ft | 429 kts | 319° |
| 2026-05-06 15:17 | 38.68106 | 26.60324 | 36059 ft | 430 kts | 319° |
| 2026-05-06 15:18 | 38.72614 | 26.55285 | 36062 ft | 430 kts | 319° |
| 2026-05-06 15:18 | 38.77121 | 26.50237 | 36063 ft | 430 kts | 319° |
| 2026-05-06 15:19 | 38.81632 | 26.45177 | 36066 ft | 431 kts | 319° |
| 2026-05-06 15:19 | 38.86154 | 26.40196 | 36066 ft | 431 kts | 320° |
| 2026-05-06 15:20 | 38.90806 | 26.35310 | 36073 ft | 431 kts | 321° |
| 2026-05-06 15:20 | 38.95454 | 26.30428 | 36070 ft | 432 kts | 320° |
| 2026-05-06 15:21 | 39.00065 | 26.25545 | 36072 ft | 432 kts | 320° |
| 2026-05-06 15:21 | 39.04703 | 26.20612 | 36071 ft | 432 kts | 320° |
| 2026-05-06 15:22 | 39.09337 | 26.15673 | 36073 ft | 432 kts | 320° |
| 2026-05-06 15:22 | 39.13972 | 26.10724 | 36067 ft | 433 kts | 320° |
| 2026-05-06 15:23 | 39.18607 | 26.05765 | 36071 ft | 432 kts | 320° |
| 2026-05-06 15:23 | 39.23242 | 26.00799 | 36071 ft | 433 kts | 320° |
| 2026-05-06 15:24 | 39.27845 | 25.95859 | 36078 ft | 433 kts | 320° |
| 2026-05-06 15:24 | 39.32449 | 25.90842 | 36070 ft | 433 kts | 319° |
| 2026-05-06 15:25 | 39.37006 | 25.85745 | 36070 ft | 433 kts | 319° |
| 2026-05-06 15:25 | 39.41570 | 25.80627 | 36071 ft | 433 kts | 319° |
| 2026-05-06 15:26 | 39.46130 | 25.75520 | 36068 ft | 433 kts | 319° |
| 2026-05-06 15:26 | 39.50660 | 25.70444 | 36068 ft | 434 kts | 319° |
| 2026-05-06 15:27 | 39.55228 | 25.65317 | 36066 ft | 434 kts | 319° |
| 2026-05-06 15:27 | 39.59803 | 25.60174 | 36069 ft | 434 kts | 319° |
| 2026-05-06 15:28 | 39.64361 | 25.55040 | 36068 ft | 434 kts | 319° |
| 2026-05-06 15:28 | 39.68897 | 25.49921 | 36062 ft | 435 kts | 319° |
| 2026-05-06 15:29 | 39.73461 | 25.44760 | 36057 ft | 435 kts | 319° |
| 2026-05-06 15:29 | 39.78021 | 25.39596 | 36053 ft | 435 kts | 319° |
| 2026-05-06 15:30 | 39.82586 | 25.34416 | 36052 ft | 435 kts | 319° |
| 2026-05-06 15:30 | 39.87152 | 25.29225 | 36048 ft | 436 kts | 319° |
| 2026-05-06 15:31 | 39.91725 | 25.24017 | 36047 ft | 436 kts | 319° |
| 2026-05-06 15:31 | 39.96236 | 25.18805 | 36049 ft | 436 kts | 318° |
| 2026-05-06 15:32 | 40.03008 | 25.10875 | 36050 ft | 436 kts | 318° |
| 2026-05-06 15:32 | 40.07521 | 25.05585 | 36053 ft | 436 kts | 318° |
| 2026-05-06 15:33 | 40.11273 | 25.01184 | 36053 ft | 436 kts | 318° |
| 2026-05-06 15:33 | 40.15789 | 24.95881 | 36055 ft | 436 kts | 318° |
| 2026-05-06 15:34 | 40.20310 | 24.90562 | 36055 ft | 437 kts | 318° |
| 2026-05-06 15:34 | 40.24830 | 24.85234 | 36052 ft | 437 kts | 317° |
| 2026-05-06 15:35 | 40.29319 | 24.79933 | 36053 ft | 437 kts | 317° |
| 2026-05-06 15:35 | 40.33840 | 24.74584 | 36052 ft | 438 kts | 317° |
| 2026-05-06 15:36 | 40.38359 | 24.69227 | 36049 ft | 438 kts | 317° |
| 2026-05-06 15:36 | 40.42882 | 24.63856 | 36047 ft | 438 kts | 317° |
| 2026-05-06 15:37 | 40.47403 | 24.58475 | 36043 ft | 439 kts | 317° |
| 2026-05-06 15:37 | 40.51899 | 24.53116 | 36041 ft | 439 kts | 317° |
| 2026-05-06 15:38 | 40.56417 | 24.47719 | 36041 ft | 439 kts | 317° |
| 2026-05-06 15:38 | 40.60944 | 24.42301 | 36049 ft | 439 kts | 317° |
| 2026-05-06 15:39 | 40.65463 | 24.36882 | 36046 ft | 440 kts | 317° |
| 2026-05-06 15:39 | 40.69986 | 24.31449 | 36042 ft | 440 kts | 317° |
| 2026-05-06 15:40 | 40.74510 | 24.26004 | 36041 ft | 440 kts | 317° |
| 2026-05-06 15:40 | 40.79034 | 24.20548 | 36028 ft | 441 kts | 317° |
| 2026-05-06 15:41 | 40.83562 | 24.15076 | 36035 ft | 441 kts | 317° |
| 2026-05-06 15:41 | 40.88097 | 24.09587 | 36016 ft | 442 kts | 317° |
| 2026-05-06 15:42 | 40.92633 | 24.04085 | 36029 ft | 443 kts | 317° |
| 2026-05-06 15:42 | 40.97151 | 23.98594 | 36026 ft | 444 kts | 317° |
| 2026-05-06 15:43 | 41.01696 | 23.93059 | 36018 ft | 444 kts | 317° |
| 2026-05-06 15:43 | 41.06247 | 23.87505 | 36018 ft | 444 kts | 317° |
| 2026-05-06 15:44 | 41.10786 | 23.81957 | 36016 ft | 444 kts | 317° |
| 2026-05-06 15:44 | 41.15318 | 23.76405 | 36014 ft | 444 kts | 316° |
| 2026-05-06 15:45 | 41.19853 | 23.70839 | 36014 ft | 443 kts | 316° |
| 2026-05-06 15:45 | 41.24386 | 23.65263 | 36002 ft | 444 kts | 316° |
| 2026-05-06 15:46 | 41.28892 | 23.59710 | 36009 ft | 444 kts | 316° |
| 2026-05-06 15:46 | 41.33427 | 23.54111 | 36012 ft | 444 kts | 316° |
| 2026-05-06 15:47 | 41.37977 | 23.48544 | 36018 ft | 445 kts | 319° |
| 2026-05-06 15:47 | 41.43048 | 23.43821 | 36022 ft | 446 kts | 328° |
| 2026-05-06 15:48 | 41.48600 | 23.40084 | 36010 ft | 447 kts | 332° |
| 2026-05-06 15:48 | 41.54205 | 23.36492 | 36024 ft | 447 kts | 332° |
| 2026-05-06 15:49 | 41.59803 | 23.32870 | 36025 ft | 447 kts | 332° |
| 2026-05-06 15:49 | 41.65364 | 23.29236 | 36026 ft | 447 kts | 332° |
| 2026-05-06 15:50 | 41.70953 | 23.25567 | 36028 ft | 448 kts | 332° |
| 2026-05-06 15:50 | 41.76558 | 23.21878 | 36028 ft | 448 kts | 332° |
| 2026-05-06 15:51 | 41.82161 | 23.18186 | 36025 ft | 449 kts | 332° |
| 2026-05-06 15:51 | 41.87774 | 23.14479 | 36026 ft | 450 kts | 332° |
| 2026-05-06 15:52 | 41.93351 | 23.10789 | 36023 ft | 450 kts | 332° |
| 2026-05-06 15:52 | 41.98963 | 23.07069 | 36019 ft | 450 kts | 332° |
| 2026-05-06 15:53 | 42.04580 | 23.03339 | 36009 ft | 450 kts | 332° |
| 2026-05-06 15:53 | 42.10190 | 22.99605 | 36006 ft | 449 kts | 332° |
| 2026-05-06 15:54 | 42.15800 | 22.95863 | 36004 ft | 449 kts | 332° |
| 2026-05-06 15:54 | 42.21406 | 22.92117 | 35999 ft | 449 kts | 331° |
| 2026-05-06 15:55 | 42.26973 | 22.88390 | 35999 ft | 449 kts | 331° |
| 2026-05-06 15:55 | 42.32577 | 22.84628 | 35990 ft | 450 kts | 331° |
| 2026-05-06 15:56 | 42.38180 | 22.80857 | 35995 ft | 450 kts | 331° |
| 2026-05-06 15:56 | 42.43790 | 22.77072 | 36001 ft | 450 kts | 331° |
| 2026-05-06 15:57 | 42.49393 | 22.73285 | 35996 ft | 450 kts | 331° |
| 2026-05-06 15:57 | 42.55005 | 22.69484 | 35988 ft | 450 kts | 331° |
| 2026-05-06 15:58 | 42.60612 | 22.65679 | 35996 ft | 450 kts | 331° |
| 2026-05-06 15:58 | 42.66220 | 22.61864 | 35992 ft | 451 kts | 331° |
| 2026-05-06 15:59 | 42.71802 | 22.58057 | 35983 ft | 452 kts | 331° |
| 2026-05-06 15:59 | 42.77425 | 22.54215 | 35996 ft | 452 kts | 331° |
| 2026-05-06 16:00 | 42.83052 | 22.50331 | 35982 ft | 452 kts | 328° |
| 2026-05-06 16:00 | 42.88241 | 22.45559 | 35980 ft | 450 kts | 320° |
| 2026-05-06 16:01 | 42.93153 | 22.40252 | 35980 ft | 450 kts | 320° |
| 2026-05-06 16:01 | 42.98070 | 22.34929 | 35976 ft | 451 kts | 320° |
| 2026-05-06 16:02 | 43.02966 | 22.29654 | 35967 ft | 451 kts | 320° |
| 2026-05-06 16:02 | 43.07903 | 22.24342 | 35962 ft | 451 kts | 320° |
| 2026-05-06 16:03 | 43.12830 | 22.19034 | 35956 ft | 451 kts | 320° |
| 2026-05-06 16:03 | 43.17764 | 22.13709 | 35937 ft | 451 kts | 320° |
| 2026-05-06 16:04 | 43.22695 | 22.08372 | 35947 ft | 451 kts | 320° |
| 2026-05-06 16:04 | 43.27620 | 22.03033 | 35942 ft | 451 kts | 320° |
| 2026-05-06 16:05 | 43.32534 | 21.97692 | 35940 ft | 451 kts | 320° |
| 2026-05-06 16:05 | 43.37458 | 21.92330 | 35943 ft | 451 kts | 320° |
| 2026-05-06 16:06 | 43.42374 | 21.86966 | 35941 ft | 451 kts | 319° |
| 2026-05-06 16:06 | 43.47265 | 21.81616 | 35945 ft | 452 kts | 319° |
| 2026-05-06 16:07 | 43.52184 | 21.76225 | 35927 ft | 452 kts | 319° |
| 2026-05-06 16:07 | 43.57110 | 21.70813 | 35950 ft | 453 kts | 319° |
| 2026-05-06 16:08 | 43.62034 | 21.65393 | 35933 ft | 453 kts | 319° |
| 2026-05-06 16:08 | 43.66963 | 21.59957 | 35928 ft | 453 kts | 319° |
| 2026-05-06 16:09 | 43.71890 | 21.54511 | 35931 ft | 453 kts | 319° |
| 2026-05-06 16:09 | 43.76817 | 21.49051 | 35924 ft | 454 kts | 319° |
| 2026-05-06 16:10 | 43.81748 | 21.43577 | 35925 ft | 454 kts | 319° |
| 2026-05-06 16:10 | 43.86672 | 21.38098 | 35920 ft | 454 kts | 319° |
| 2026-05-06 16:11 | 43.91567 | 21.32639 | 35921 ft | 454 kts | 319° |
| 2026-05-06 16:11 | 43.96490 | 21.27136 | 35925 ft | 454 kts | 319° |
| 2026-05-06 16:12 | 44.01419 | 21.21615 | 35923 ft | 454 kts | 319° |
| 2026-05-06 16:12 | 44.06334 | 21.16098 | 35930 ft | 454 kts | 319° |
| 2026-05-06 16:13 | 44.11247 | 21.10571 | 35929 ft | 454 kts | 319° |
| 2026-05-06 16:13 | 44.16159 | 21.05033 | 35930 ft | 455 kts | 319° |
| 2026-05-06 16:14 | 44.21044 | 20.99512 | 35928 ft | 455 kts | 319° |
| 2026-05-06 16:14 | 44.25960 | 20.93945 | 35928 ft | 455 kts | 319° |
| 2026-05-06 16:15 | 44.30874 | 20.88368 | 35934 ft | 455 kts | 319° |
| 2026-05-06 16:15 | 44.35781 | 20.82787 | 35925 ft | 455 kts | 318° |
| 2026-05-06 16:16 | 44.40685 | 20.77195 | 35925 ft | 454 kts | 318° |
| 2026-05-06 16:16 | 44.45583 | 20.71599 | 35928 ft | 454 kts | 318° |
| 2026-05-06 16:17 | 44.50446 | 20.66029 | 35925 ft | 455 kts | 318° |
| 2026-05-06 16:17 | 44.55344 | 20.60408 | 35927 ft | 455 kts | 318° |
| 2026-05-06 16:18 | 44.60239 | 20.54777 | 35918 ft | 455 kts | 318° |
| 2026-05-06 16:18 | 44.65123 | 20.49145 | 35918 ft | 454 kts | 318° |
| 2026-05-06 16:19 | 44.70007 | 20.43503 | 35918 ft | 454 kts | 318° |
| 2026-05-06 16:19 | 44.74885 | 20.37853 | 35916 ft | 454 kts | 318° |
| 2026-05-06 16:20 | 44.79763 | 20.32191 | 35913 ft | 454 kts | 318° |
| 2026-05-06 16:20 | 44.84603 | 20.26560 | 35916 ft | 454 kts | 318° |
| 2026-05-06 16:21 | 44.89468 | 20.20888 | 35915 ft | 454 kts | 317° |
| 2026-05-06 16:21 | 44.94333 | 20.15202 | 35917 ft | 454 kts | 317° |
| 2026-05-06 16:22 | 44.98379 | 20.10463 | 35912 ft | 454 kts | 317° |
| 2026-05-06 16:22 | 45.03238 | 20.04761 | 35918 ft | 454 kts | 317° |
| 2026-05-06 16:23 | 45.08094 | 19.99049 | 35915 ft | 454 kts | 317° |
| 2026-05-06 16:23 | 45.12951 | 19.93322 | 35924 ft | 454 kts | 317° |
| 2026-05-06 16:24 | 45.17779 | 19.87616 | 35919 ft | 454 kts | 317° |
| 2026-05-06 16:24 | 45.22639 | 19.81860 | 35905 ft | 455 kts | 317° |
| 2026-05-06 16:25 | 45.27474 | 19.76074 | 35900 ft | 454 kts | 316° |
| 2026-05-06 16:25 | 45.32230 | 19.70144 | 35901 ft | 454 kts | 315° |
| 2026-05-06 16:26 | 45.36967 | 19.64188 | 35910 ft | 455 kts | 315° |
| 2026-05-06 16:26 | 45.41696 | 19.58250 | 35912 ft | 456 kts | 315° |
| 2026-05-06 16:27 | 45.46473 | 19.52257 | 35913 ft | 458 kts | 315° |
| 2026-05-06 16:27 | 45.51260 | 19.46242 | 35912 ft | 459 kts | 314° |
| 2026-05-06 16:28 | 45.56017 | 19.40249 | 35915 ft | 459 kts | 314° |
| 2026-05-06 16:28 | 45.60810 | 19.34195 | 35901 ft | 460 kts | 314° |
| 2026-05-06 16:29 | 45.65601 | 19.28130 | 35902 ft | 460 kts | 314° |
| 2026-05-06 16:29 | 45.70392 | 19.22050 | 35903 ft | 460 kts | 314° |
| 2026-05-06 16:30 | 45.74376 | 19.16983 | 35901 ft | 460 kts | 314° |
| 2026-05-06 16:30 | 45.79941 | 19.09888 | 35904 ft | 460 kts | 314° |
| 2026-05-06 16:31 | 45.84727 | 19.03769 | 35905 ft | 460 kts | 314° |
| 2026-05-06 16:31 | 45.89509 | 18.97644 | 35906 ft | 460 kts | 314° |
| 2026-05-06 16:32 | 45.94107 | 18.91370 | 35899 ft | 457 kts | 307° |
| 2026-05-06 16:32 | 45.98072 | 18.84301 | 35910 ft | 454 kts | 304° |
| 2026-05-06 16:33 | 46.01971 | 18.77164 | 35905 ft | 454 kts | 304° |
| 2026-05-06 16:34 | 46.07876 | 18.66417 | 35912 ft | 455 kts | 304° |
| 2026-05-06 16:34 | 46.11816 | 18.59265 | 35917 ft | 456 kts | 304° |
| 2026-05-06 16:35 | 46.15754 | 18.52103 | 35914 ft | 456 kts | 304° |
| 2026-05-06 16:35 | 46.19692 | 18.44919 | 35917 ft | 456 kts | 304° |
| 2026-05-06 16:36 | 46.23602 | 18.37766 | 35912 ft | 456 kts | 303° |
| 2026-05-06 16:36 | 46.27527 | 18.30568 | 35911 ft | 456 kts | 303° |
| 2026-05-06 16:37 | 46.31456 | 18.23342 | 35905 ft | 456 kts | 303° |
| 2026-05-06 16:37 | 46.35381 | 18.16106 | 35899 ft | 457 kts | 303° |
| 2026-05-06 16:38 | 46.39274 | 18.08909 | 35902 ft | 457 kts | 303° |
| 2026-05-06 16:38 | 46.43193 | 18.01647 | 35894 ft | 457 kts | 303° |
| 2026-05-06 16:39 | 46.47111 | 17.94367 | 35891 ft | 457 kts | 303° |
| 2026-05-06 16:39 | 46.51021 | 17.87082 | 35893 ft | 457 kts | 303° |
| 2026-05-06 16:40 | 46.54903 | 17.79829 | 35890 ft | 458 kts | 303° |
| 2026-05-06 16:40 | 46.58812 | 17.72511 | 35885 ft | 458 kts | 303° |
| 2026-05-06 16:41 | 46.62744 | 17.65206 | 35891 ft | 459 kts | 304° |
| 2026-05-06 16:41 | 46.66829 | 17.58036 | 35879 ft | 460 kts | 305° |
| 2026-05-06 16:42 | 46.70940 | 17.50882 | 35881 ft | 461 kts | 305° |
| 2026-05-06 16:42 | 46.75044 | 17.43670 | 35887 ft | 461 kts | 305° |
| 2026-05-06 16:43 | 46.79111 | 17.36468 | 35883 ft | 461 kts | 304° |
| 2026-05-06 16:43 | 46.83206 | 17.29189 | 35891 ft | 462 kts | 304° |
| 2026-05-06 16:44 | 46.87281 | 17.21931 | 35884 ft | 462 kts | 304° |
| 2026-05-06 16:44 | 46.91335 | 17.14688 | 35885 ft | 463 kts | 304° |
| 2026-05-06 16:45 | 46.95415 | 17.07383 | 35874 ft | 463 kts | 304° |
| 2026-05-06 16:45 | 46.99486 | 17.00075 | 35873 ft | 463 kts | 304° |
| 2026-05-06 16:46 | 47.03553 | 16.92752 | 35855 ft | 463 kts | 304° |
| 2026-05-06 16:46 | 47.07627 | 16.85399 | 35847 ft | 463 kts | 304° |
| 2026-05-06 16:47 | 47.11665 | 16.78089 | 35852 ft | 463 kts | 304° |
| 2026-05-06 16:47 | 47.15722 | 16.70726 | 35850 ft | 463 kts | 304° |
| 2026-05-06 16:48 | 47.19768 | 16.63363 | 35846 ft | 463 kts | 304° |
| 2026-05-06 16:48 | 47.23811 | 16.55984 | 35846 ft | 463 kts | 304° |
| 2026-05-06 16:49 | 47.27838 | 16.48618 | 35842 ft | 463 kts | 303° |
| 2026-05-06 16:49 | 47.31919 | 16.41246 | 35842 ft | 464 kts | 304° |
| 2026-05-06 16:50 | 47.36048 | 16.33909 | 35837 ft | 464 kts | 304° |
| 2026-05-06 16:50 | 47.40173 | 16.26558 | 35826 ft | 465 kts | 304° |
| 2026-05-06 16:51 | 47.44259 | 16.19239 | 35823 ft | 465 kts | 304° |
| 2026-05-06 16:51 | 47.48363 | 16.11857 | 35824 ft | 464 kts | 304° |
| 2026-05-06 16:52 | 47.52459 | 16.04464 | 35815 ft | 464 kts | 303° |
| 2026-05-06 16:52 | 47.56548 | 15.97065 | 35825 ft | 464 kts | 303° |
| 2026-05-06 16:53 | 47.60631 | 15.89655 | 35816 ft | 464 kts | 303° |
| 2026-05-06 16:53 | 47.64707 | 15.82239 | 35804 ft | 464 kts | 303° |
| 2026-05-06 16:54 | 47.68759 | 15.74848 | 35808 ft | 465 kts | 303° |
| 2026-05-06 16:54 | 47.72843 | 15.67378 | 35808 ft | 466 kts | 303° |
| 2026-05-06 16:55 | 47.76933 | 15.59875 | 35781 ft | 467 kts | 303° |
| 2026-05-06 16:55 | 47.81015 | 15.52366 | 35761 ft | 466 kts | 303° |
| 2026-05-06 16:56 | 47.85086 | 15.44864 | 35795 ft | 464 kts | 303° |
| 2026-05-06 16:56 | 47.89115 | 15.37418 | 35759 ft | 464 kts | 302° |
| 2026-05-06 16:57 | 47.93153 | 15.29924 | 35778 ft | 463 kts | 302° |
| 2026-05-06 16:57 | 47.97179 | 15.22430 | 35742 ft | 462 kts | 302° |
| 2026-05-06 16:58 | 48.01204 | 15.14926 | 35734 ft | 464 kts | 302° |
| 2026-05-06 16:58 | 48.05236 | 15.07387 | 35726 ft | 464 kts | 302° |
| 2026-05-06 16:59 | 48.09263 | 14.99836 | 35722 ft | 464 kts | 302° |
| 2026-05-06 16:59 | 48.13268 | 14.92304 | 35705 ft | 464 kts | 302° |
| 2026-05-06 17:00 | 48.17286 | 14.84728 | 35706 ft | 464 kts | 302° |
| 2026-05-06 17:00 | 48.21296 | 14.77145 | 35695 ft | 464 kts | 302° |
| 2026-05-06 17:01 | 48.25296 | 14.69558 | 35695 ft | 463 kts | 302° |
| 2026-05-06 17:01 | 48.29290 | 14.61963 | 35688 ft | 463 kts | 301° |
| 2026-05-06 17:02 | 48.33282 | 14.54349 | 35682 ft | 464 kts | 301° |
| 2026-05-06 17:02 | 48.37271 | 14.46719 | 35683 ft | 464 kts | 301° |
| 2026-05-06 17:03 | 48.41258 | 14.39071 | 35683 ft | 464 kts | 301° |
| 2026-05-06 17:03 | 48.45214 | 14.31461 | 35674 ft | 465 kts | 301° |
| 2026-05-06 17:04 | 48.49194 | 14.23783 | 35685 ft | 465 kts | 301° |
| 2026-05-06 17:04 | 48.53181 | 14.16069 | 35692 ft | 466 kts | 301° |
| 2026-05-06 17:05 | 48.57167 | 14.08338 | 35710 ft | 468 kts | 301° |
| 2026-05-06 17:05 | 48.61171 | 14.00547 | 35699 ft | 469 kts | 301° |
| 2026-05-06 17:06 | 48.65170 | 13.92743 | 35687 ft | 469 kts | 301° |
| 2026-05-06 17:06 | 48.69136 | 13.84982 | 35709 ft | 469 kts | 301° |
| 2026-05-06 17:07 | 48.73124 | 13.77155 | 35709 ft | 470 kts | 301° |
| 2026-05-06 17:07 | 48.76597 | 13.68871 | 35708 ft | 461 kts | 290° |
| 2026-05-06 17:08 | 48.79014 | 13.59958 | 35715 ft | 455 kts | 284° |
| 2026-05-06 17:08 | 48.81132 | 13.50910 | 35701 ft | 455 kts | 283° |
| 2026-05-06 17:09 | 48.83240 | 13.41903 | 35712 ft | 456 kts | 284° |
| 2026-05-06 17:09 | 48.85383 | 13.32817 | 35712 ft | 457 kts | 284° |
| 2026-05-06 17:10 | 48.87532 | 13.23716 | 35705 ft | 458 kts | 284° |
| 2026-05-06 17:10 | 48.89677 | 13.14606 | 35706 ft | 458 kts | 284° |
| 2026-05-06 17:11 | 48.91452 | 13.07033 | 35707 ft | 458 kts | 284° |
| 2026-05-06 17:11 | 48.93585 | 12.97890 | 35719 ft | 458 kts | 284° |
| 2026-05-06 17:12 | 48.95711 | 12.88740 | 35713 ft | 459 kts | 284° |
| 2026-05-06 17:12 | 48.97836 | 12.79561 | 35727 ft | 459 kts | 284° |
| 2026-05-06 17:13 | 48.99937 | 12.70440 | 35724 ft | 459 kts | 284° |
| 2026-05-06 17:13 | 49.02048 | 12.61239 | 35726 ft | 459 kts | 284° |
| 2026-05-06 17:14 | 49.04151 | 12.52034 | 35735 ft | 459 kts | 284° |
| 2026-05-06 17:14 | 49.06241 | 12.42845 | 35724 ft | 459 kts | 284° |
| 2026-05-06 17:15 | 49.08327 | 12.33634 | 35736 ft | 458 kts | 283° |
| 2026-05-06 17:15 | 49.10389 | 12.24488 | 35747 ft | 458 kts | 283° |
| 2026-05-06 17:16 | 49.12454 | 12.15287 | 35760 ft | 458 kts | 283° |
| 2026-05-06 17:16 | 49.14512 | 12.06078 | 35766 ft | 458 kts | 283° |
| 2026-05-06 17:17 | 49.16564 | 11.96859 | 35776 ft | 459 kts | 283° |
| 2026-05-06 17:17 | 49.18614 | 11.87600 | 35769 ft | 459 kts | 283° |
| 2026-05-06 17:18 | 49.20655 | 11.78353 | 35769 ft | 459 kts | 283° |
| 2026-05-06 17:18 | 49.22686 | 11.69104 | 35767 ft | 459 kts | 283° |
| 2026-05-06 17:19 | 49.24708 | 11.59854 | 35763 ft | 459 kts | 283° |
| 2026-05-06 17:19 | 49.26712 | 11.50643 | 35767 ft | 458 kts | 283° |
| 2026-05-06 17:20 | 49.28725 | 11.41354 | 35769 ft | 459 kts | 283° |
| 2026-05-06 17:20 | 49.30733 | 11.32040 | 35776 ft | 459 kts | 283° |
| 2026-05-06 17:21 | 49.32732 | 11.22729 | 35777 ft | 460 kts | 283° |
| 2026-05-06 17:21 | 49.34726 | 11.13399 | 35774 ft | 461 kts | 283° |
| 2026-05-06 17:22 | 49.36704 | 11.04106 | 35781 ft | 461 kts | 283° |
| 2026-05-06 17:22 | 49.38731 | 10.94742 | 35787 ft | 464 kts | 285° |
| 2026-05-06 17:23 | 49.41472 | 10.85679 | 35783 ft | 469 kts | 291° |
| 2026-05-06 17:23 | 49.44431 | 10.76720 | 35803 ft | 471 kts | 291° |
| 2026-05-06 17:24 | 49.47377 | 10.67727 | 35799 ft | 471 kts | 291° |
| 2026-05-06 17:24 | 49.50297 | 10.58692 | 35781 ft | 472 kts | 291° |
| 2026-05-06 17:25 | 49.53203 | 10.49633 | 35780 ft | 472 kts | 291° |
| 2026-05-06 17:25 | 49.56085 | 10.40610 | 35780 ft | 473 kts | 291° |
| 2026-05-06 17:26 | 49.58988 | 10.31494 | 35779 ft | 473 kts | 291° |
| 2026-05-06 17:26 | 49.61882 | 10.22374 | 35788 ft | 473 kts | 291° |
| 2026-05-06 17:27 | 49.64771 | 10.13235 | 35788 ft | 473 kts | 291° |
| 2026-05-06 17:27 | 49.67652 | 10.04092 | 35802 ft | 473 kts | 291° |
| 2026-05-06 17:28 | 49.70505 | 9.95000 | 35797 ft | 473 kts | 291° |
| 2026-05-06 17:28 | 49.73371 | 9.85835 | 35781 ft | 474 kts | 291° |
| 2026-05-06 17:29 | 49.76233 | 9.76651 | 35803 ft | 474 kts | 291° |
| 2026-05-06 17:29 | 49.79089 | 9.67447 | 35806 ft | 474 kts | 291° |
| 2026-05-06 17:30 | 49.81940 | 9.58225 | 35812 ft | 475 kts | 291° |
| 2026-05-06 17:30 | 49.84786 | 9.48986 | 35796 ft | 475 kts | 291° |
| 2026-05-06 17:31 | 49.87635 | 9.39702 | 35946 ft | 477 kts | 291° |
| 2026-05-06 17:31 | 49.89059 | 9.35050 | 36134 ft | 477 kts | 291° |
| 2026-05-06 17:31 | 49.90477 | 9.30407 | 36346 ft | 476 kts | 291° |
| 2026-05-06 17:31 | 49.91872 | 9.25831 | 36546 ft | 475 kts | 291° |
| 2026-05-06 17:32 | 49.93290 | 9.21173 | 36705 ft | 476 kts | 291° |
| 2026-05-06 17:32 | 49.94703 | 9.16522 | 36864 ft | 476 kts | 291° |
| 2026-05-06 17:32 | 49.96113 | 9.11871 | 37023 ft | 476 kts | 291° |
| 2026-05-06 17:32 | 49.97521 | 9.07217 | 37205 ft | 475 kts | 291° |
| 2026-05-06 17:33 | 49.98922 | 9.02577 | 37346 ft | 475 kts | 291° |
| 2026-05-06 17:33 | 50.00329 | 8.97906 | 37519 ft | 475 kts | 291° |
| 2026-05-06 17:33 | 50.01729 | 8.93252 | 37669 ft | 475 kts | 291° |
| 2026-05-06 17:34 | 50.04526 | 8.83931 | 37791 ft | 476 kts | 291° |
| 2026-05-06 17:34 | 50.07082 | 8.74497 | 37810 ft | 474 kts | 287° |
| 2026-05-06 17:35 | 50.09348 | 8.64832 | 37815 ft | 475 kts | 287° |
| 2026-05-06 17:35 | 50.11591 | 8.55141 | 37804 ft | 476 kts | 287° |
| 2026-05-06 17:36 | 50.14986 | 8.40578 | 37821 ft | 476 kts | 287° |
| 2026-05-06 17:36 | 50.17249 | 8.30868 | 37811 ft | 476 kts | 287° |
| 2026-05-06 17:37 | 50.19498 | 8.21176 | 37814 ft | 474 kts | 287° |
| 2026-05-06 17:37 | 50.21733 | 8.11495 | 37817 ft | 473 kts | 287° |
| 2026-05-06 17:38 | 50.23952 | 8.01842 | 37819 ft | 472 kts | 287° |
| 2026-05-06 17:38 | 50.25509 | 7.95039 | 37825 ft | 471 kts | 287° |
| 2026-05-06 17:39 | 50.27706 | 7.85401 | 37830 ft | 470 kts | 287° |
| 2026-05-06 17:39 | 50.29892 | 7.75769 | 37832 ft | 470 kts | 287° |
| 2026-05-06 17:40 | 50.32068 | 7.66140 | 37839 ft | 469 kts | 287° |
| 2026-05-06 17:40 | 50.34235 | 7.56504 | 37826 ft | 470 kts | 287° |
| 2026-05-06 17:41 | 50.36399 | 7.46837 | 37827 ft | 470 kts | 287° |
| 2026-05-06 17:41 | 50.38542 | 7.37221 | 37845 ft | 470 kts | 287° |
| 2026-05-06 17:42 | 50.40690 | 7.27536 | 37846 ft | 471 kts | 287° |
| 2026-05-06 17:42 | 50.42837 | 7.17812 | 37837 ft | 471 kts | 287° |
| 2026-05-06 17:43 | 50.44973 | 7.08093 | 37842 ft | 471 kts | 287° |
| 2026-05-06 17:43 | 50.47101 | 6.98359 | 37845 ft | 472 kts | 287° |
| 2026-05-06 17:44 | 50.49229 | 6.88593 | 37853 ft | 472 kts | 287° |
| 2026-05-06 17:44 | 50.51324 | 6.78823 | 37855 ft | 472 kts | 285° |
| 2026-05-06 17:45 | 50.53160 | 6.68950 | 37866 ft | 471 kts | 283° |
| 2026-05-06 17:45 | 50.54903 | 6.59074 | 37862 ft | 471 kts | 283° |
| 2026-05-06 17:46 | 50.56673 | 6.49153 | 37864 ft | 471 kts | 284° |
| 2026-05-06 17:46 | 50.58463 | 6.39218 | 37866 ft | 471 kts | 284° |
| 2026-05-06 17:47 | 50.60252 | 6.29277 | 37867 ft | 471 kts | 284° |
| 2026-05-06 17:47 | 50.62031 | 6.19340 | 37869 ft | 471 kts | 284° |
| 2026-05-06 17:48 | 50.63791 | 6.09444 | 37875 ft | 472 kts | 283° |
| 2026-05-06 17:48 | 50.65548 | 5.99506 | 37880 ft | 472 kts | 283° |
| 2026-05-06 17:49 | 50.67300 | 5.89543 | 37888 ft | 472 kts | 283° |
| 2026-05-06 17:49 | 50.69043 | 5.79575 | 37886 ft | 472 kts | 283° |
| 2026-05-06 17:50 | 50.70781 | 5.69580 | 37883 ft | 472 kts | 283° |
| 2026-05-06 17:50 | 50.72504 | 5.59614 | 37886 ft | 471 kts | 283° |
| 2026-05-06 17:51 | 50.74213 | 5.49676 | 37884 ft | 471 kts | 283° |
| 2026-05-06 17:51 | 50.75924 | 5.39665 | 37888 ft | 471 kts | 283° |
| 2026-05-06 17:52 | 50.77624 | 5.29662 | 37884 ft | 471 kts | 283° |
| 2026-05-06 17:52 | 50.79321 | 5.19620 | 37888 ft | 471 kts | 283° |
| 2026-05-06 17:53 | 50.80992 | 5.09673 | 37891 ft | 471 kts | 283° |
| 2026-05-06 17:53 | 50.82666 | 4.99653 | 37894 ft | 471 kts | 283° |
| 2026-05-06 17:54 | 50.84331 | 4.89625 | 37896 ft | 471 kts | 283° |
| 2026-05-06 17:54 | 50.85990 | 4.79573 | 37903 ft | 471 kts | 283° |
| 2026-05-06 17:55 | 50.87640 | 4.69528 | 37912 ft | 472 kts | 283° |
| 2026-05-06 17:55 | 50.89296 | 4.59478 | 37909 ft | 472 kts | 285° |
| 2026-05-06 17:56 | 50.91731 | 4.49818 | 37912 ft | 474 kts | 295° |
| 2026-05-06 17:56 | 50.95066 | 4.40862 | 37918 ft | 474 kts | 300° |
| 2026-05-06 17:57 | 50.98493 | 4.32116 | 37914 ft | 474 kts | 300° |
| 2026-05-06 17:57 | 51.01368 | 4.24690 | 37913 ft | 474 kts | 300° |
| 2026-05-06 17:58 | 51.05347 | 4.14268 | 37914 ft | 474 kts | 300° |
| 2026-05-06 17:58 | 51.08203 | 4.06739 | 37917 ft | 474 kts | 300° |
| 2026-05-06 17:59 | 51.11585 | 3.97801 | 37905 ft | 474 kts | 300° |
| 2026-05-06 17:59 | 51.14975 | 3.88814 | 37905 ft | 473 kts | 300° |
| 2026-05-06 18:00 | 51.18356 | 3.79820 | 37908 ft | 473 kts | 299° |
| 2026-05-06 18:00 | 51.21701 | 3.70777 | 37893 ft | 472 kts | 296° |
| 2026-05-06 18:01 | 51.24169 | 3.61129 | 37893 ft | 469 kts | 285° |
| 2026-05-06 18:01 | 51.25597 | 3.51002 | 37903 ft | 467 kts | 280° |
| 2026-05-06 18:02 | 51.26868 | 3.40898 | 37923 ft | 467 kts | 281° |
| 2026-05-06 18:02 | 51.28196 | 3.30731 | 37928 ft | 467 kts | 281° |
| 2026-05-06 18:03 | 51.29511 | 3.20601 | 37941 ft | 466 kts | 281° |
| 2026-05-06 18:03 | 51.30818 | 3.10444 | 37955 ft | 466 kts | 281° |
| 2026-05-06 18:04 | 51.32111 | 3.00310 | 37966 ft | 465 kts | 280° |
| 2026-05-06 18:04 | 51.33394 | 2.90181 | 37961 ft | 465 kts | 280° |
| 2026-05-06 18:05 | 51.34671 | 2.80036 | 37960 ft | 464 kts | 280° |
| 2026-05-06 18:05 | 51.35932 | 2.69912 | 37961 ft | 464 kts | 280° |
| 2026-05-06 18:06 | 51.37162 | 2.59844 | 37961 ft | 464 kts | 280° |
| 2026-05-06 18:06 | 51.38394 | 2.49685 | 37952 ft | 464 kts | 280° |
| 2026-05-06 18:07 | 51.39610 | 2.39603 | 37953 ft | 464 kts | 280° |
| 2026-05-06 18:07 | 51.40829 | 2.29427 | 37954 ft | 465 kts | 280° |
| 2026-05-06 18:08 | 51.42054 | 2.19260 | 37954 ft | 465 kts | 280° |
| 2026-05-06 18:08 | 51.43303 | 2.09074 | 37957 ft | 465 kts | 280° |
| 2026-05-06 18:09 | 51.44535 | 1.98893 | 37961 ft | 465 kts | 280° |
| 2026-05-06 18:09 | 51.45748 | 1.88700 | 37957 ft | 465 kts | 280° |
| 2026-05-06 18:10 | 51.46933 | 1.78494 | 37960 ft | 466 kts | 279° |
| 2026-05-06 18:10 | 51.48091 | 1.68328 | 37966 ft | 466 kts | 279° |
| 2026-05-06 18:11 | 51.49251 | 1.58108 | 37966 ft | 466 kts | 279° |
| 2026-05-06 18:11 | 51.50408 | 1.47866 | 37972 ft | 466 kts | 279° |
| 2026-05-06 18:12 | 51.51554 | 1.37637 | 37969 ft | 466 kts | 279° |
| 2026-05-06 18:12 | 51.52692 | 1.27403 | 37971 ft | 466 kts | 279° |
| 2026-05-06 18:13 | 51.53818 | 1.17199 | 37976 ft | 466 kts | 279° |
| 2026-05-06 18:13 | 51.54702 | 1.06909 | 37983 ft | 465 kts | 275° |
| 2026-05-06 18:14 | 51.55341 | 0.96558 | 37993 ft | 465 kts | 275° |
| 2026-05-06 18:14 | 51.55965 | 0.86199 | 37995 ft | 465 kts | 275° |
| 2026-05-06 18:15 | 51.56598 | 0.75908 | 37998 ft | 465 kts | 275° |
| 2026-05-06 18:15 | 51.57236 | 0.65544 | 37995 ft | 465 kts | 275° |
| 2026-05-06 18:16 | 51.57865 | 0.55177 | 37995 ft | 465 kts | 275° |
| 2026-05-06 18:16 | 51.58484 | 0.44823 | 37992 ft | 465 kts | 275° |
| 2026-05-06 18:17 | 51.59093 | 0.34451 | 37993 ft | 465 kts | 275° |
| 2026-05-06 18:17 | 51.59689 | 0.24165 | 37992 ft | 465 kts | 275° |
| 2026-05-06 18:18 | 51.60279 | 0.13807 | 37994 ft | 465 kts | 275° |
| 2026-05-06 18:18 | 51.60862 | 0.03427 | 37996 ft | 464 kts | 275° |
| 2026-05-06 18:19 | 51.61434 | -0.06913 | 37994 ft | 464 kts | 275° |
| 2026-05-06 18:19 | 51.62015 | -0.17244 | 38045 ft | 463 kts | 275° |
| 2026-05-06 18:20 | 51.62648 | -0.27510 | 38052 ft | 463 kts | 275° |
| 2026-05-06 18:20 | 51.63285 | -0.37825 | 37997 ft | 463 kts | 275° |
| 2026-05-06 18:21 | 51.63905 | -0.48142 | 37990 ft | 463 kts | 275° |
| 2026-05-06 18:21 | 51.64511 | -0.58459 | 37998 ft | 463 kts | 275° |
| 2026-05-06 18:22 | 51.65107 | -0.68796 | 37995 ft | 463 kts | 275° |
| 2026-05-06 18:22 | 51.65694 | -0.79117 | 37997 ft | 463 kts | 275° |
| 2026-05-06 18:23 | 51.66272 | -0.89446 | 37994 ft | 463 kts | 275° |
| 2026-05-06 18:23 | 51.66839 | -0.99728 | 37998 ft | 463 kts | 275° |
| 2026-05-06 18:24 | 51.67399 | -1.10069 | 37989 ft | 463 kts | 275° |
| 2026-05-06 18:24 | 51.67951 | -1.20417 | 37993 ft | 464 kts | 275° |
| 2026-05-06 18:25 | 51.68494 | -1.30770 | 37996 ft | 464 kts | 275° |
| 2026-05-06 18:25 | 51.69028 | -1.41130 | 37995 ft | 464 kts | 275° |
| 2026-05-06 18:26 | 51.69554 | -1.51515 | 37992 ft | 464 kts | 275° |
| 2026-05-06 18:26 | 51.70072 | -1.61890 | 37994 ft | 464 kts | 275° |
| 2026-05-06 18:27 | 51.70604 | -1.72267 | 38003 ft | 465 kts | 276° |
| 2026-05-06 18:27 | 51.71345 | -1.82615 | 37998 ft | 465 kts | 277° |
| 2026-05-06 18:28 | 51.72132 | -1.92906 | 38000 ft | 465 kts | 277° |
| 2026-05-06 18:28 | 51.72889 | -2.03260 | 38003 ft | 465 kts | 276° |
| 2026-05-06 18:29 | 51.73618 | -2.13638 | 38020 ft | 465 kts | 276° |
| 2026-05-06 18:29 | 51.74331 | -2.24005 | 38019 ft | 465 kts | 276° |
| 2026-05-06 18:30 | 51.75035 | -2.34376 | 38012 ft | 465 kts | 276° |
| 2026-05-06 18:30 | 51.75720 | -2.44571 | 38010 ft | 465 kts | 276° |
| 2026-05-06 18:31 | 51.76404 | -2.54882 | 38025 ft | 464 kts | 276° |
| 2026-05-06 18:31 | 51.77082 | -2.65258 | 38035 ft | 464 kts | 276° |
| 2026-05-06 18:32 | 51.77751 | -2.75632 | 38039 ft | 464 kts | 276° |
| 2026-05-06 18:32 | 51.78411 | -2.86006 | 38047 ft | 464 kts | 276° |
| 2026-05-06 18:33 | 51.79061 | -2.96372 | 38047 ft | 464 kts | 276° |
| 2026-05-06 18:33 | 51.79703 | -3.06755 | 38044 ft | 464 kts | 276° |
| 2026-05-06 18:34 | 51.80334 | -3.17124 | 38037 ft | 464 kts | 276° |
| 2026-05-06 18:34 | 51.80954 | -3.27450 | 38028 ft | 464 kts | 276° |
| 2026-05-06 18:35 | 51.81568 | -3.37832 | 38019 ft | 464 kts | 276° |
| 2026-05-06 18:35 | 51.82175 | -3.48233 | 38004 ft | 464 kts | 275° |
| 2026-05-06 18:36 | 51.83035 | -3.58568 | 38004 ft | 464 kts | 282° |
| 2026-05-06 18:36 | 51.84395 | -3.68763 | 38007 ft | 464 kts | 282° |
| 2026-05-06 18:37 | 51.85524 | -3.77256 | 38002 ft | 465 kts | 282° |
| 2026-05-06 18:37 | 51.87056 | -3.89173 | 38004 ft | 465 kts | 282° |
| 2026-05-06 18:38 | 51.88271 | -3.99478 | 38014 ft | 465 kts | 277° |
| 2026-05-06 18:38 | 51.88753 | -4.09935 | 38006 ft | 466 kts | 274° |
| 2026-05-06 18:39 | 51.89118 | -4.20403 | 38007 ft | 466 kts | 274° |
| 2026-05-06 18:40 | 51.89688 | -4.36046 | 38004 ft | 466 kts | 274° |
| 2026-05-06 18:40 | 51.90079 | -4.46523 | 38008 ft | 466 kts | 274° |
| 2026-05-06 18:41 | 51.90464 | -4.57008 | 38002 ft | 466 kts | 274° |
| 2026-05-06 18:41 | 51.90839 | -4.67498 | 38001 ft | 466 kts | 274° |
| 2026-05-06 18:42 | 51.91203 | -4.77999 | 38002 ft | 467 kts | 274° |
| 2026-05-06 18:42 | 51.91559 | -4.88512 | 38003 ft | 467 kts | 274° |
| 2026-05-06 18:43 | 51.91903 | -4.98942 | 37999 ft | 467 kts | 274° |
| 2026-05-06 18:43 | 51.92239 | -5.09459 | 38001 ft | 467 kts | 274° |
| 2026-05-06 18:44 | 51.92567 | -5.19973 | 38004 ft | 467 kts | 274° |
| 2026-05-06 18:44 | 51.92885 | -5.30497 | 38003 ft | 467 kts | 274° |
| 2026-05-06 18:45 | 51.93194 | -5.41013 | 38003 ft | 467 kts | 273° |
| 2026-05-06 18:45 | 51.93494 | -5.51537 | 38008 ft | 467 kts | 273° |
| 2026-05-06 18:46 | 51.93782 | -5.62009 | 38011 ft | 468 kts | 273° |
| 2026-05-06 18:46 | 51.94063 | -5.72543 | 38010 ft | 468 kts | 273° |
| 2026-05-06 18:47 | 51.94290 | -5.81313 | 38008 ft | 468 kts | 273° |
| 2026-05-06 18:47 | 51.94555 | -5.91868 | 38011 ft | 468 kts | 273° |
| 2026-05-06 18:48 | 51.94810 | -6.02430 | 38008 ft | 469 kts | 273° |
| 2026-05-06 18:48 | 51.95056 | -6.12987 | 38005 ft | 469 kts | 273° |
| 2026-05-06 18:49 | 51.95293 | -6.23547 | 38003 ft | 469 kts | 273° |
| 2026-05-06 18:49 | 51.95650 | -6.34043 | 38007 ft | 469 kts | 275° |
| 2026-05-06 18:50 | 51.96120 | -6.44598 | 38007 ft | 469 kts | 275° |
| 2026-05-06 18:50 | 51.96579 | -6.55172 | 38000 ft | 470 kts | 275° |
| 2026-05-06 18:51 | 51.97006 | -6.65746 | 38000 ft | 470 kts | 275° |
| 2026-05-06 18:51 | 51.97414 | -6.76321 | 38007 ft | 470 kts | 275° |
| 2026-05-06 18:52 | 51.97809 | -6.86845 | 38007 ft | 470 kts | 274° |
| 2026-05-06 18:52 | 51.98199 | -6.97485 | 38002 ft | 471 kts | 274° |
| 2026-05-06 18:53 | 51.98576 | -7.08015 | 37997 ft | 471 kts | 274° |
| 2026-05-06 18:53 | 51.98947 | -7.18639 | 37994 ft | 471 kts | 274° |
| 2026-05-06 18:54 | 51.99309 | -7.29271 | 37994 ft | 471 kts | 274° |
| 2026-05-06 18:54 | 51.99660 | -7.39873 | 37996 ft | 471 kts | 274° |
| 2026-05-06 18:55 | 52.00003 | -7.50501 | 37990 ft | 472 kts | 274° |
| 2026-05-06 18:55 | 52.00336 | -7.61153 | 38003 ft | 472 kts | 274° |
| 2026-05-06 18:56 | 52.00660 | -7.71793 | 37997 ft | 472 kts | 274° |
| 2026-05-06 18:56 | 52.00974 | -7.82439 | 37984 ft | 472 kts | 274° |
| 2026-05-06 18:57 | 52.01277 | -7.93038 | 37980 ft | 473 kts | 274° |
| 2026-05-06 18:57 | 52.01572 | -8.03696 | 37981 ft | 473 kts | 274° |
| 2026-05-06 18:58 | 52.01859 | -8.14381 | 37995 ft | 473 kts | 274° |
| 2026-05-06 18:58 | 52.02135 | -8.25053 | 37980 ft | 473 kts | 274° |
| 2026-05-06 18:59 | 52.02402 | -8.35751 | 37996 ft | 474 kts | 274° |
| 2026-05-06 18:59 | 52.02660 | -8.46445 | 37994 ft | 474 kts | 273° |
| 2026-05-06 19:00 | 52.02907 | -8.57166 | 37995 ft | 474 kts | 273° |
| 2026-05-06 19:00 | 52.03146 | -8.67873 | 37992 ft | 475 kts | 273° |
| 2026-05-06 19:01 | 52.03373 | -8.78518 | 37984 ft | 475 kts | 273° |
| 2026-05-06 19:01 | 52.03593 | -8.89242 | 37992 ft | 475 kts | 273° |
| 2026-05-06 19:02 | 52.03802 | -8.99949 | 37978 ft | 476 kts | 273° |
| 2026-05-06 19:02 | 52.03998 | -9.10544 | 37976 ft | 476 kts | 273° |
| 2026-05-06 19:03 | 52.04189 | -9.21267 | 37978 ft | 476 kts | 273° |
| 2026-05-06 19:03 | 52.04370 | -9.32032 | 37981 ft | 477 kts | 273° |
| 2026-05-06 19:04 | 52.04541 | -9.42798 | 37978 ft | 476 kts | 273° |
| 2026-05-06 19:04 | 52.04702 | -9.53557 | 37986 ft | 476 kts | 273° |
| 2026-05-06 19:05 | 52.04853 | -9.64322 | 37996 ft | 476 kts | 273° |
| 2026-05-06 19:05 | 52.04995 | -9.75089 | 37990 ft | 476 kts | 272° |
| 2026-05-06 19:06 | 52.05126 | -9.85778 | 37990 ft | 476 kts | 272° |
| 2026-05-06 19:06 | 52.05248 | -9.96559 | 37991 ft | 477 kts | 272° |
| 2026-05-06 19:07 | 52.05361 | -10.07350 | 37992 ft | 476 kts | 272° |
| 2026-05-06 19:07 | 52.05463 | -10.18120 | 38001 ft | 476 kts | 272° |
| 2026-05-06 19:08 | 52.05556 | -10.28875 | 37997 ft | 476 kts | 272° |
| 2026-05-06 19:08 | 52.05637 | -10.39462 | 37997 ft | 476 kts | 272° |
| 2026-05-06 19:09 | 52.05711 | -10.50299 | 37996 ft | 476 kts | 272° |
| 2026-05-06 19:09 | 52.05774 | -10.61055 | 38001 ft | 476 kts | 272° |
| 2026-05-06 19:10 | 52.05828 | -10.71802 | 38002 ft | 476 kts | 272° |
| 2026-05-06 19:10 | 52.05872 | -10.82566 | 38001 ft | 476 kts | 272° |
| 2026-05-06 19:11 | 52.05905 | -10.93318 | 38004 ft | 476 kts | 272° |
| 2026-05-06 19:11 | 52.05930 | -11.04084 | 38004 ft | 476 kts | 271° |
| 2026-05-06 19:12 | 52.05944 | -11.14831 | 38001 ft | 476 kts | 271° |
| 2026-05-06 19:12 | 52.05948 | -11.25527 | 38002 ft | 476 kts | 271° |
| 2026-05-06 19:13 | 52.05943 | -11.36262 | 38003 ft | 476 kts | 271° |
| 2026-05-06 19:13 | 52.05928 | -11.47042 | 38003 ft | 476 kts | 271° |
| 2026-05-06 19:14 | 52.05903 | -11.57768 | 38000 ft | 475 kts | 271° |
| 2026-05-06 19:14 | 52.05869 | -11.68522 | 38001 ft | 475 kts | 271° |
| 2026-05-06 19:15 | 52.05825 | -11.79178 | 38000 ft | 475 kts | 271° |
| 2026-05-06 19:15 | 52.05770 | -11.89982 | 38004 ft | 475 kts | 271° |
| 2026-05-06 19:16 | 52.05707 | -12.00685 | 38002 ft | 475 kts | 271° |
| 2026-05-06 19:16 | 52.05633 | -12.11419 | 37996 ft | 474 kts | 271° |
| 2026-05-06 19:17 | 52.05550 | -12.22140 | 37997 ft | 474 kts | 270° |
| 2026-05-06 19:17 | 52.05458 | -12.32777 | 37999 ft | 474 kts | 270° |
| 2026-05-06 19:18 | 52.05356 | -12.43462 | 37998 ft | 474 kts | 270° |
| 2026-05-06 19:18 | 52.05243 | -12.54220 | 37997 ft | 474 kts | 270° |
| 2026-05-06 19:19 | 52.05121 | -12.64941 | 37999 ft | 473 kts | 270° |
| 2026-05-06 19:19 | 52.04990 | -12.75623 | 37994 ft | 473 kts | 270° |
| 2026-05-06 19:20 | 52.04850 | -12.86234 | 37996 ft | 473 kts | 270° |
| 2026-05-06 19:20 | 52.04699 | -12.96989 | 37994 ft | 473 kts | 270° |
| 2026-05-06 19:21 | 52.04540 | -13.07581 | 37993 ft | 473 kts | 270° |
| 2026-05-06 19:21 | 52.04370 | -13.18255 | 37997 ft | 473 kts | 270° |
| 2026-05-06 19:22 | 52.04190 | -13.28982 | 37988 ft | 472 kts | 270° |
| 2026-05-06 19:22 | 52.04001 | -13.39635 | 37991 ft | 472 kts | 269° |
| 2026-05-06 19:23 | 52.03803 | -13.50307 | 37991 ft | 472 kts | 269° |
| 2026-05-06 19:23 | 52.03595 | -13.60960 | 37993 ft | 472 kts | 269° |
| 2026-05-06 19:24 | 52.03379 | -13.71534 | 37989 ft | 472 kts | 269° |
| 2026-05-06 19:24 | 52.03151 | -13.82204 | 37991 ft | 471 kts | 269° |
| 2026-05-06 19:25 | 52.02915 | -13.92830 | 37988 ft | 471 kts | 269° |
| 2026-05-06 19:25 | 52.02670 | -14.03449 | 37991 ft | 471 kts | 269° |
| 2026-05-06 19:26 | 52.02414 | -14.14094 | 37989 ft | 471 kts | 269° |
| 2026-05-06 19:26 | 52.02149 | -14.24713 | 37993 ft | 471 kts | 269° |
| 2026-05-06 19:27 | 52.01875 | -14.35343 | 37991 ft | 471 kts | 269° |
| 2026-05-06 19:27 | 52.01590 | -14.45991 | 37991 ft | 471 kts | 268° |
| 2026-05-06 19:28 | 52.01297 | -14.56600 | 37988 ft | 471 kts | 268° |
| 2026-05-06 19:28 | 52.00995 | -14.67207 | 37987 ft | 470 kts | 268° |
| 2026-05-06 19:29 | 52.00682 | -14.77829 | 37983 ft | 470 kts | 268° |
| 2026-05-06 19:29 | 52.00363 | -14.88402 | 37988 ft | 470 kts | 268° |
| 2026-05-06 19:30 | 52.00191 | -14.99001 | 38000 ft | 468 kts | 274° |
| 2026-05-06 19:30 | 52.01052 | -15.09463 | 37993 ft | 467 kts | 282° |
| 2026-05-06 19:31 | 52.02341 | -15.19785 | 37986 ft | 467 kts | 282° |
| 2026-05-06 19:31 | 52.04248 | -15.35246 | 37984 ft | 467 kts | 281° |
| 2026-05-06 19:32 | 52.05488 | -15.45623 | 37985 ft | 467 kts | 281° |
| 2026-05-06 19:32 | 52.06709 | -15.55994 | 37992 ft | 467 kts | 281° |
| 2026-05-06 19:33 | 52.07917 | -15.66347 | 37991 ft | 467 kts | 281° |
| 2026-05-06 19:33 | 52.09121 | -15.76732 | 37983 ft | 467 kts | 281° |
| 2026-05-06 19:34 | 52.10118 | -15.85394 | 37985 ft | 467 kts | 280° |
| 2026-05-06 19:34 | 52.11308 | -15.95814 | 37985 ft | 467 kts | 280° |
| 2026-05-06 19:35 | 52.12479 | -16.06151 | 37981 ft | 467 kts | 280° |
| 2026-05-06 19:35 | 52.13649 | -16.16564 | 37982 ft | 467 kts | 280° |
| 2026-05-06 19:36 | 52.14809 | -16.26973 | 37985 ft | 467 kts | 280° |
| 2026-05-06 19:36 | 52.15961 | -16.37404 | 37981 ft | 468 kts | 279° |
| 2026-05-06 19:37 | 52.17104 | -16.47842 | 37980 ft | 468 kts | 279° |
| 2026-05-06 19:37 | 52.18238 | -16.58280 | 37979 ft | 468 kts | 279° |
| 2026-05-06 19:38 | 52.19358 | -16.68691 | 37977 ft | 467 kts | 279° |
| 2026-05-06 19:38 | 52.20471 | -16.79122 | 37980 ft | 467 kts | 279° |
| 2026-05-06 19:39 | 52.21568 | -16.89491 | 37978 ft | 467 kts | 279° |
| 2026-05-06 19:39 | 52.22664 | -16.99938 | 37979 ft | 466 kts | 278° |
| 2026-05-06 19:40 | 52.23751 | -17.10396 | 37977 ft | 466 kts | 278° |
| 2026-05-06 19:40 | 52.24825 | -17.20829 | 37978 ft | 466 kts | 278° |
| 2026-05-06 19:41 | 52.25888 | -17.31247 | 37978 ft | 465 kts | 278° |
| 2026-05-06 19:41 | 52.26934 | -17.41587 | 37982 ft | 465 kts | 278° |
| 2026-05-06 19:42 | 52.27977 | -17.51994 | 37981 ft | 464 kts | 278° |
| 2026-05-06 19:42 | 52.29011 | -17.62405 | 37981 ft | 464 kts | 278° |
| 2026-05-06 19:43 | 52.30036 | -17.72829 | 37979 ft | 464 kts | 278° |
| 2026-05-06 19:43 | 52.31048 | -17.83213 | 37980 ft | 463 kts | 277° |
| 2026-05-06 19:44 | 52.32050 | -17.93598 | 37984 ft | 463 kts | 277° |
| 2026-05-06 19:44 | 52.33047 | -18.04027 | 37984 ft | 463 kts | 277° |
| 2026-05-06 19:45 | 52.34033 | -18.14443 | 37982 ft | 463 kts | 277° |
| 2026-05-06 19:45 | 52.35010 | -18.24862 | 37982 ft | 463 kts | 277° |
| 2026-05-06 19:46 | 52.35977 | -18.35288 | 37981 ft | 463 kts | 277° |
| 2026-05-06 19:46 | 52.36929 | -18.45637 | 37981 ft | 463 kts | 277° |
| 2026-05-06 19:47 | 52.37878 | -18.56071 | 37983 ft | 463 kts | 277° |
| 2026-05-06 19:47 | 52.38819 | -18.66519 | 37982 ft | 463 kts | 277° |
| 2026-05-06 19:48 | 52.39749 | -18.76954 | 37979 ft | 464 kts | 276° |
| 2026-05-06 19:48 | 52.40673 | -18.87416 | 37983 ft | 464 kts | 276° |
| 2026-05-06 19:49 | 52.41584 | -18.97852 | 37983 ft | 464 kts | 276° |
| 2026-05-06 19:49 | 52.42487 | -19.08305 | 37982 ft | 464 kts | 276° |
| 2026-05-06 19:50 | 52.43382 | -19.18777 | 37981 ft | 464 kts | 276° |
| 2026-05-06 19:50 | 52.44267 | -19.29239 | 37986 ft | 464 kts | 276° |
| 2026-05-06 19:51 | 52.45142 | -19.39703 | 37989 ft | 464 kts | 276° |
| 2026-05-06 19:51 | 52.46008 | -19.50162 | 37993 ft | 464 kts | 276° |
| 2026-05-06 19:52 | 52.46867 | -19.60660 | 37994 ft | 464 kts | 276° |
| 2026-05-06 19:52 | 52.47717 | -19.71166 | 37977 ft | 464 kts | 276° |
| 2026-05-06 19:53 | 52.48556 | -19.81663 | 37973 ft | 464 kts | 276° |
| 2026-05-06 19:53 | 52.49388 | -19.92161 | 37988 ft | 464 kts | 276° |
| 2026-05-06 19:54 | 52.50148 | -20.02656 | 37984 ft | 464 kts | 273° |
| 2026-05-06 19:54 | 52.50606 | -20.13222 | 37987 ft | 464 kts | 272° |
| 2026-05-06 19:55 | 52.51002 | -20.23784 | 37983 ft | 464 kts | 272° |
| 2026-05-06 19:55 | 52.51403 | -20.34343 | 37986 ft | 464 kts | 272° |
| 2026-05-06 19:56 | 52.51809 | -20.44918 | 37988 ft | 464 kts | 272° |
| 2026-05-06 19:56 | 52.52211 | -20.55492 | 37988 ft | 464 kts | 272° |
| 2026-05-06 19:57 | 52.52606 | -20.66108 | 37986 ft | 464 kts | 272° |
| 2026-05-06 19:57 | 52.52989 | -20.76691 | 37996 ft | 465 kts | 272° |
| 2026-05-06 19:58 | 52.53363 | -20.87296 | 37994 ft | 465 kts | 272° |
| 2026-05-06 19:58 | 52.53727 | -20.97882 | 37991 ft | 465 kts | 272° |
| 2026-05-06 19:59 | 52.54081 | -21.08440 | 37994 ft | 465 kts | 272° |
| 2026-05-06 19:59 | 52.54427 | -21.19073 | 37991 ft | 465 kts | 272° |
| 2026-05-06 20:00 | 52.54762 | -21.29616 | 37993 ft | 465 kts | 272° |
| 2026-05-06 20:00 | 52.55089 | -21.40253 | 37994 ft | 465 kts | 272° |
| 2026-05-06 20:01 | 52.55408 | -21.50913 | 37991 ft | 465 kts | 272° |
| 2026-05-06 20:01 | 52.55715 | -21.61510 | 37991 ft | 465 kts | 272° |
| 2026-05-06 20:02 | 52.56012 | -21.72084 | 37991 ft | 465 kts | 271° |
| 2026-05-06 20:02 | 52.56301 | -21.82689 | 37992 ft | 465 kts | 271° |
| 2026-05-06 20:03 | 52.56581 | -21.93332 | 37992 ft | 465 kts | 271° |
| 2026-05-06 20:03 | 52.56852 | -22.03996 | 37989 ft | 465 kts | 271° |
| 2026-05-06 20:04 | 52.57112 | -22.14628 | 37994 ft | 465 kts | 271° |
| 2026-05-06 20:04 | 52.57363 | -22.25263 | 38000 ft | 465 kts | 271° |
| 2026-05-06 20:05 | 52.57603 | -22.35812 | 37993 ft | 466 kts | 271° |
| 2026-05-06 20:05 | 52.57835 | -22.46451 | 37997 ft | 466 kts | 271° |
| 2026-05-06 20:06 | 52.58058 | -22.57109 | 37994 ft | 466 kts | 271° |
| 2026-05-06 20:06 | 52.58273 | -22.67844 | 37996 ft | 466 kts | 271° |
| 2026-05-06 20:07 | 52.58477 | -22.78500 | 37988 ft | 467 kts | 271° |
| 2026-05-06 20:07 | 52.58669 | -22.89083 | 37989 ft | 467 kts | 271° |
| 2026-05-06 20:08 | 52.58854 | -22.99751 | 37989 ft | 467 kts | 271° |
| 2026-05-06 20:08 | 52.59030 | -23.10446 | 37995 ft | 467 kts | 271° |
| 2026-05-06 20:09 | 52.59196 | -23.21150 | 37992 ft | 468 kts | 271° |
| 2026-05-06 20:09 | 52.59352 | -23.31844 | 37996 ft | 468 kts | 271° |
| 2026-05-06 20:10 | 52.59499 | -23.42547 | 37996 ft | 468 kts | 271° |
| 2026-05-06 20:10 | 52.59636 | -23.53236 | 37995 ft | 469 kts | 271° |
| 2026-05-06 20:11 | 52.59764 | -23.63962 | 37992 ft | 469 kts | 270° |
| 2026-05-06 20:11 | 52.59882 | -23.74701 | 37990 ft | 469 kts | 270° |
| 2026-05-06 20:12 | 52.59990 | -23.85451 | 37991 ft | 470 kts | 270° |
| 2026-05-06 20:12 | 52.60088 | -23.96120 | 37992 ft | 470 kts | 270° |
| 2026-05-06 20:13 | 52.60178 | -24.06879 | 37989 ft | 470 kts | 270° |
| 2026-05-06 20:13 | 52.60257 | -24.17654 | 37992 ft | 471 kts | 270° |
| 2026-05-06 20:14 | 52.60327 | -24.28417 | 37992 ft | 471 kts | 270° |
| 2026-05-06 20:14 | 52.60387 | -24.39175 | 37991 ft | 471 kts | 270° |
| 2026-05-06 20:15 | 52.60437 | -24.49968 | 37991 ft | 472 kts | 270° |
| 2026-05-06 20:15 | 52.60478 | -24.60740 | 37990 ft | 472 kts | 270° |
| 2026-05-06 20:16 | 52.60509 | -24.71519 | 37988 ft | 472 kts | 270° |
| 2026-05-06 20:16 | 52.60530 | -24.82400 | 37988 ft | 472 kts | 270° |
| 2026-05-06 20:17 | 52.60541 | -24.93110 | 37987 ft | 472 kts | 270° |
| 2026-05-06 20:17 | 52.60542 | -25.03946 | 37985 ft | 473 kts | 270° |
| 2026-05-06 20:18 | 52.60533 | -25.14767 | 37988 ft | 473 kts | 270° |
| 2026-05-06 20:18 | 52.60515 | -25.25596 | 37983 ft | 473 kts | 270° |
| 2026-05-06 20:19 | 52.60487 | -25.36390 | 37984 ft | 473 kts | 270° |
| 2026-05-06 20:19 | 52.60449 | -25.47176 | 37983 ft | 473 kts | 270° |
| 2026-05-06 20:20 | 52.60401 | -25.58016 | 37981 ft | 473 kts | 270° |
| 2026-05-06 20:20 | 52.60343 | -25.68825 | 37983 ft | 473 kts | 269° |
| 2026-05-06 20:21 | 52.60287 | -25.77880 | 37986 ft | 473 kts | 269° |
| 2026-05-06 20:21 | 52.60198 | -25.90429 | 37984 ft | 472 kts | 269° |
| 2026-05-06 20:22 | 52.60126 | -25.99476 | 37979 ft | 472 kts | 269° |
| 2026-05-06 20:22 | 52.60030 | -26.10275 | 37976 ft | 472 kts | 269° |
| 2026-05-06 20:23 | 52.59925 | -26.21072 | 37976 ft | 472 kts | 269° |
| 2026-05-06 20:23 | 52.59810 | -26.31873 | 37978 ft | 472 kts | 269° |
| 2026-05-06 20:24 | 52.59686 | -26.42623 | 37977 ft | 472 kts | 269° |
| 2026-05-06 20:24 | 52.59551 | -26.53416 | 37977 ft | 472 kts | 269° |
| 2026-05-06 20:25 | 52.59407 | -26.64187 | 37975 ft | 472 kts | 269° |
| 2026-05-06 20:25 | 52.59253 | -26.74947 | 37974 ft | 472 kts | 269° |
| 2026-05-06 20:26 | 52.59089 | -26.85765 | 37975 ft | 472 kts | 269° |
| 2026-05-06 20:26 | 52.58916 | -26.96522 | 37972 ft | 472 kts | 269° |
| 2026-05-06 20:27 | 52.58732 | -27.07304 | 37971 ft | 472 kts | 269° |
| 2026-05-06 20:27 | 52.58537 | -27.18154 | 37962 ft | 472 kts | 269° |
| 2026-05-06 20:28 | 52.58336 | -27.28847 | 37969 ft | 472 kts | 269° |
| 2026-05-06 20:28 | 52.58122 | -27.39699 | 37965 ft | 472 kts | 269° |
| 2026-05-06 20:29 | 52.57899 | -27.50481 | 37965 ft | 472 kts | 269° |
| 2026-05-06 20:29 | 52.57667 | -27.61269 | 37967 ft | 473 kts | 269° |
| 2026-05-06 20:30 | 52.57300 | -27.77401 | 37964 ft | 473 kts | 268° |
| 2026-05-06 20:31 | 52.57043 | -27.88210 | 37965 ft | 473 kts | 268° |
| 2026-05-06 20:31 | 52.56775 | -27.99013 | 37966 ft | 473 kts | 268° |
| 2026-05-06 20:32 | 52.56497 | -28.09842 | 37965 ft | 474 kts | 268° |
| 2026-05-06 20:32 | 52.56209 | -28.20667 | 37960 ft | 474 kts | 268° |
| 2026-05-06 20:33 | 52.55911 | -28.31496 | 37954 ft | 475 kts | 268° |
| 2026-05-06 20:33 | 52.55604 | -28.42331 | 37954 ft | 475 kts | 268° |
| 2026-05-06 20:34 | 52.55285 | -28.53195 | 37961 ft | 475 kts | 268° |
| 2026-05-06 20:34 | 52.54959 | -28.63973 | 37952 ft | 476 kts | 268° |
| 2026-05-06 20:35 | 52.54620 | -28.74844 | 38163 ft | 477 kts | 268° |
| 2026-05-06 20:35 | 52.54446 | -28.80301 | 38406 ft | 476 kts | 268° |
| 2026-05-06 20:35 | 52.54272 | -28.85704 | 38614 ft | 476 kts | 268° |
| 2026-05-06 20:35 | 52.54092 | -28.91196 | 38716 ft | 477 kts | 268° |
| 2026-05-06 20:36 | 52.53912 | -28.96591 | 38859 ft | 477 kts | 268° |
| 2026-05-06 20:36 | 52.53728 | -29.02051 | 39011 ft | 477 kts | 268° |
| 2026-05-06 20:36 | 52.53544 | -29.07428 | 39135 ft | 477 kts | 268° |
| 2026-05-06 20:36 | 52.53355 | -29.12907 | 39262 ft | 477 kts | 268° |
| 2026-05-06 20:37 | 52.53166 | -29.18301 | 39397 ft | 477 kts | 268° |
| 2026-05-06 20:37 | 52.52970 | -29.23793 | 39536 ft | 477 kts | 268° |
| 2026-05-06 20:37 | 52.52776 | -29.29196 | 39634 ft | 478 kts | 268° |
| 2026-05-06 20:37 | 52.52575 | -29.34695 | 39773 ft | 477 kts | 268° |
| 2026-05-06 20:38 | 52.52376 | -29.40083 | 39862 ft | 477 kts | 268° |
| 2026-05-06 20:38 | 52.51965 | -29.51026 | 39941 ft | 479 kts | 268° |
| 2026-05-06 20:39 | 52.51545 | -29.61936 | 39947 ft | 480 kts | 268° |
| 2026-05-06 20:39 | 52.51113 | -29.72864 | 39950 ft | 481 kts | 268° |
| 2026-05-06 20:40 | 52.50670 | -29.83837 | 39948 ft | 482 kts | 268° |
| 2026-05-06 20:40 | 52.50220 | -29.94784 | 39956 ft | 482 kts | 268° |
| 2026-05-06 20:41 | 52.49894 | -30.05743 | 39953 ft | 481 kts | 270° |
| 2026-05-06 20:41 | 52.49807 | -30.16681 | 39953 ft | 480 kts | 271° |
| 2026-05-06 20:42 | 52.49741 | -30.27657 | 39955 ft | 480 kts | 271° |
| 2026-05-06 20:42 | 52.49646 | -30.38621 | 39960 ft | 479 kts | 270° |
| 2026-05-06 20:43 | 52.49527 | -30.49539 | 39962 ft | 478 kts | 271° |
| 2026-05-06 20:43 | 52.49395 | -30.60443 | 39968 ft | 477 kts | 271° |
| 2026-05-06 20:44 | 52.49253 | -30.71313 | 39970 ft | 477 kts | 270° |
| 2026-05-06 20:44 | 52.49100 | -30.82159 | 39970 ft | 476 kts | 270° |
| 2026-05-06 20:45 | 52.48937 | -30.93035 | 39974 ft | 476 kts | 270° |
| 2026-05-06 20:45 | 52.48768 | -31.03893 | 39975 ft | 476 kts | 270° |
| 2026-05-06 20:46 | 52.48590 | -31.14687 | 39994 ft | 476 kts | 270° |
| 2026-05-06 20:46 | 52.48397 | -31.25621 | 39978 ft | 476 kts | 270° |
| 2026-05-06 20:47 | 52.48197 | -31.36451 | 39986 ft | 476 kts | 270° |
| 2026-05-06 20:47 | 52.47986 | -31.47296 | 40000 ft | 477 kts | 270° |
| 2026-05-06 20:48 | 52.47765 | -31.58165 | 40000 ft | 477 kts | 270° |
| 2026-05-06 20:48 | 52.47535 | -31.69023 | 40001 ft | 477 kts | 270° |
| 2026-05-06 20:49 | 52.47293 | -31.79924 | 39987 ft | 478 kts | 270° |
| 2026-05-06 20:49 | 52.47042 | -31.90793 | 40004 ft | 478 kts | 270° |
| 2026-05-06 20:50 | 52.46780 | -32.01700 | 40007 ft | 479 kts | 270° |
| 2026-05-06 20:50 | 52.46509 | -32.12591 | 40010 ft | 479 kts | 270° |
| 2026-05-06 20:51 | 52.46226 | -32.23497 | 40014 ft | 479 kts | 270° |
| 2026-05-06 20:51 | 52.45934 | -32.34431 | 40014 ft | 479 kts | 269° |
| 2026-05-06 20:52 | 52.45631 | -32.45360 | 40017 ft | 479 kts | 269° |
| 2026-05-06 20:52 | 52.45319 | -32.56246 | 40018 ft | 480 kts | 269° |
| 2026-05-06 20:53 | 52.44997 | -32.67150 | 40016 ft | 480 kts | 269° |
| 2026-05-06 20:53 | 52.44663 | -32.78122 | 40029 ft | 480 kts | 269° |
| 2026-05-06 20:54 | 52.44320 | -32.89022 | 40029 ft | 480 kts | 269° |
| 2026-05-06 20:54 | 52.43968 | -32.99922 | 40029 ft | 480 kts | 269° |
| 2026-05-06 20:55 | 52.43605 | -33.10829 | 40030 ft | 480 kts | 269° |
| 2026-05-06 20:55 | 52.43233 | -33.21742 | 40039 ft | 480 kts | 269° |
| 2026-05-06 20:56 | 52.42850 | -33.32657 | 40040 ft | 480 kts | 269° |
| 2026-05-06 20:56 | 52.42457 | -33.43564 | 40042 ft | 480 kts | 269° |
| 2026-05-06 20:57 | 52.42053 | -33.54490 | 40049 ft | 480 kts | 269° |
| 2026-05-06 20:57 | 52.41640 | -33.65390 | 40048 ft | 480 kts | 269° |
| 2026-05-06 20:58 | 52.41217 | -33.76282 | 40048 ft | 480 kts | 269° |
| 2026-05-06 20:58 | 52.40783 | -33.87203 | 40057 ft | 480 kts | 269° |
| 2026-05-06 20:59 | 52.40341 | -33.98079 | 40054 ft | 480 kts | 269° |
| 2026-05-06 20:59 | 52.39887 | -34.08993 | 40061 ft | 480 kts | 268° |
| 2026-05-06 21:00 | 52.39421 | -34.19933 | 40058 ft | 479 kts | 268° |
| 2026-05-06 21:00 | 52.38952 | -34.30734 | 40064 ft | 479 kts | 268° |
| 2026-05-06 21:01 | 52.38470 | -34.41600 | 40060 ft | 479 kts | 268° |
| 2026-05-06 21:01 | 52.37978 | -34.52461 | 40063 ft | 479 kts | 268° |
| 2026-05-06 21:02 | 52.37473 | -34.63376 | 40070 ft | 478 kts | 268° |
| 2026-05-06 21:02 | 52.36961 | -34.74239 | 40072 ft | 478 kts | 268° |
| 2026-05-06 21:03 | 52.36441 | -34.85059 | 40077 ft | 478 kts | 268° |
| 2026-05-06 21:03 | 52.35908 | -34.95925 | 40077 ft | 478 kts | 268° |
| 2026-05-06 21:04 | 52.35372 | -35.06658 | 40088 ft | 478 kts | 268° |
| 2026-05-06 21:04 | 52.34817 | -35.17570 | 40083 ft | 477 kts | 268° |
| 2026-05-06 21:05 | 52.34262 | -35.28289 | 40090 ft | 477 kts | 268° |
| 2026-05-06 21:05 | 52.33692 | -35.39108 | 40089 ft | 477 kts | 268° |
| 2026-05-06 21:06 | 52.33113 | -35.49903 | 40093 ft | 477 kts | 268° |
| 2026-05-06 21:06 | 52.32520 | -35.60766 | 40098 ft | 476 kts | 268° |
| 2026-05-06 21:07 | 52.31922 | -35.71537 | 40097 ft | 476 kts | 268° |
| 2026-05-06 21:07 | 52.31314 | -35.82317 | 40102 ft | 476 kts | 268° |
| 2026-05-06 21:08 | 52.30697 | -35.93090 | 40101 ft | 476 kts | 268° |
| 2026-05-06 21:08 | 52.30075 | -36.03762 | 40103 ft | 475 kts | 268° |
| 2026-05-06 21:09 | 52.29438 | -36.14520 | 40103 ft | 475 kts | 268° |
| 2026-05-06 21:09 | 52.28793 | -36.25245 | 40110 ft | 475 kts | 268° |
| 2026-05-06 21:10 | 52.28139 | -36.35966 | 40112 ft | 475 kts | 268° |
| 2026-05-06 21:10 | 52.27472 | -36.46738 | 40120 ft | 475 kts | 268° |
| 2026-05-06 21:11 | 52.26909 | -36.55694 | 40118 ft | 475 kts | 268° |
| 2026-05-06 21:11 | 52.26229 | -36.66371 | 40116 ft | 474 kts | 268° |
| 2026-05-06 21:12 | 52.25537 | -36.77081 | 40122 ft | 474 kts | 268° |
| 2026-05-06 21:12 | 52.24838 | -36.87757 | 40124 ft | 474 kts | 268° |
| 2026-05-06 21:13 | 52.24131 | -36.98401 | 40127 ft | 474 kts | 268° |
| 2026-05-06 21:13 | 52.23407 | -37.09145 | 40130 ft | 473 kts | 268° |
| 2026-05-06 21:14 | 52.22682 | -37.19770 | 40133 ft | 473 kts | 268° |
| 2026-05-06 21:14 | 52.21946 | -37.30402 | 40134 ft | 473 kts | 268° |
| 2026-05-06 21:15 | 52.21198 | -37.41070 | 40134 ft | 472 kts | 267° |
| 2026-05-06 21:15 | 52.20444 | -37.51686 | 40135 ft | 472 kts | 267° |
| 2026-05-06 21:16 | 52.19681 | -37.62286 | 40143 ft | 472 kts | 267° |
| 2026-05-06 21:16 | 52.18905 | -37.72942 | 40142 ft | 471 kts | 267° |
| 2026-05-06 21:17 | 52.18125 | -37.83509 | 40142 ft | 471 kts | 267° |
| 2026-05-06 21:17 | 52.17335 | -37.94074 | 40144 ft | 471 kts | 267° |
| 2026-05-06 21:18 | 52.16531 | -38.04702 | 40145 ft | 470 kts | 267° |
| 2026-05-06 21:18 | 52.15727 | -38.15205 | 40145 ft | 470 kts | 267° |
| 2026-05-06 21:19 | 52.14908 | -38.25775 | 40146 ft | 469 kts | 267° |
| 2026-05-06 21:19 | 52.14077 | -38.36367 | 40148 ft | 469 kts | 267° |
| 2026-05-06 21:20 | 52.13245 | -38.46856 | 40148 ft | 469 kts | 267° |
| 2026-05-06 21:20 | 52.12404 | -38.57341 | 40158 ft | 468 kts | 267° |
| 2026-05-06 21:21 | 52.11545 | -38.67916 | 40148 ft | 468 kts | 267° |
| 2026-05-06 21:21 | 52.10685 | -38.78399 | 40145 ft | 468 kts | 267° |
| 2026-05-06 21:22 | 52.09817 | -38.88849 | 40156 ft | 468 kts | 267° |
| 2026-05-06 21:22 | 52.08941 | -38.99292 | 40151 ft | 467 kts | 267° |
| 2026-05-06 21:23 | 52.08054 | -39.09741 | 40160 ft | 467 kts | 267° |
| 2026-05-06 21:23 | 52.07160 | -39.20168 | 40160 ft | 466 kts | 267° |
| 2026-05-06 21:24 | 52.06257 | -39.30582 | 40163 ft | 466 kts | 266° |
| 2026-05-06 21:24 | 52.05347 | -39.40981 | 40162 ft | 465 kts | 266° |
| 2026-05-06 21:25 | 52.04429 | -39.51354 | 40165 ft | 464 kts | 266° |
| 2026-05-06 21:25 | 52.03494 | -39.61803 | 40167 ft | 464 kts | 266° |
| 2026-05-06 21:26 | 52.02560 | -39.72152 | 40169 ft | 463 kts | 266° |
| 2026-05-06 21:26 | 52.01620 | -39.82465 | 40167 ft | 463 kts | 266° |
| 2026-05-06 21:27 | 52.00671 | -39.92784 | 40171 ft | 462 kts | 266° |
| 2026-05-06 21:27 | 51.99473 | -40.03030 | 40167 ft | 467 kts | 259° |
| 2026-05-06 21:28 | 51.97507 | -40.13070 | 40167 ft | 468 kts | 257° |
| 2026-05-06 21:28 | 51.95470 | -40.23115 | 40168 ft | 467 kts | 257° |
| 2026-05-06 21:29 | 51.93456 | -40.33117 | 40162 ft | 467 kts | 257° |
| 2026-05-06 21:29 | 51.91462 | -40.43077 | 40173 ft | 466 kts | 257° |
| 2026-05-06 21:30 | 51.89473 | -40.52997 | 40171 ft | 466 kts | 257° |
| 2026-05-06 21:30 | 51.87454 | -40.63020 | 40173 ft | 465 kts | 257° |
| 2026-05-06 21:31 | 51.85435 | -40.72985 | 40176 ft | 464 kts | 257° |
| 2026-05-06 21:31 | 51.83418 | -40.82888 | 40172 ft | 464 kts | 257° |
| 2026-05-06 21:32 | 51.81405 | -40.92722 | 40173 ft | 463 kts | 257° |
| 2026-05-06 21:32 | 51.78356 | -41.07528 | 40173 ft | 462 kts | 257° |
| 2026-05-06 21:33 | 51.76315 | -41.17377 | 40174 ft | 462 kts | 257° |
| 2026-05-06 21:33 | 51.74268 | -41.27204 | 40170 ft | 461 kts | 257° |
| 2026-05-06 21:34 | 51.72221 | -41.36983 | 40175 ft | 461 kts | 257° |
| 2026-05-06 21:34 | 51.70170 | -41.46736 | 40175 ft | 460 kts | 257° |
| 2026-05-06 21:35 | 51.68102 | -41.56521 | 40175 ft | 459 kts | 257° |
| 2026-05-06 21:35 | 51.66043 | -41.66220 | 40174 ft | 458 kts | 257° |
| 2026-05-06 21:36 | 51.63986 | -41.75860 | 40170 ft | 457 kts | 257° |
| 2026-05-06 21:36 | 51.61902 | -41.85583 | 40169 ft | 456 kts | 256° |
| 2026-05-06 21:37 | 51.59827 | -41.95215 | 40170 ft | 456 kts | 256° |
| 2026-05-06 21:37 | 51.57747 | -42.04824 | 40170 ft | 455 kts | 256° |
| 2026-05-06 21:38 | 51.55660 | -42.14428 | 40172 ft | 454 kts | 256° |
| 2026-05-06 21:38 | 51.53580 | -42.23951 | 40171 ft | 454 kts | 256° |
| 2026-05-06 21:39 | 51.51488 | -42.33485 | 40166 ft | 453 kts | 256° |
| 2026-05-06 21:39 | 51.49377 | -42.43062 | 40167 ft | 453 kts | 256° |
| 2026-05-06 21:40 | 51.47277 | -42.52542 | 40167 ft | 453 kts | 255° |
| 2026-05-06 21:40 | 51.45144 | -42.62129 | 40168 ft | 454 kts | 255° |
| 2026-05-06 21:41 | 51.43028 | -42.71594 | 40170 ft | 454 kts | 255° |
| 2026-05-06 21:41 | 51.40894 | -42.81100 | 40172 ft | 455 kts | 255° |
| 2026-05-06 21:42 | 51.38732 | -42.90685 | 40175 ft | 455 kts | 255° |
| 2026-05-06 21:42 | 51.36584 | -43.00165 | 40159 ft | 456 kts | 255° |
| 2026-05-06 21:43 | 51.34405 | -43.09739 | 40164 ft | 456 kts | 254° |
| 2026-05-06 21:43 | 51.32219 | -43.19303 | 40163 ft | 457 kts | 254° |
| 2026-05-06 21:44 | 51.30036 | -43.28804 | 40157 ft | 457 kts | 254° |
| 2026-05-06 21:44 | 51.27845 | -43.38304 | 40163 ft | 457 kts | 254° |
| 2026-05-06 21:45 | 51.25632 | -43.47852 | 40156 ft | 457 kts | 254° |
| 2026-05-06 21:45 | 51.23428 | -43.57320 | 40153 ft | 457 kts | 254° |
| 2026-05-06 21:46 | 51.21202 | -43.66843 | 40162 ft | 456 kts | 253° |
| 2026-05-06 21:46 | 51.18995 | -43.76240 | 40159 ft | 456 kts | 253° |
| 2026-05-06 21:47 | 51.16746 | -43.85776 | 40156 ft | 455 kts | 253° |
| 2026-05-06 21:47 | 51.14530 | -43.95130 | 40156 ft | 455 kts | 253° |
| 2026-05-06 21:48 | 51.12279 | -44.04591 | 40155 ft | 454 kts | 253° |
| 2026-05-06 21:48 | 51.10030 | -44.14000 | 40153 ft | 454 kts | 253° |
| 2026-05-06 21:49 | 51.07794 | -44.23318 | 40154 ft | 453 kts | 253° |
| 2026-05-06 21:49 | 51.05533 | -44.32697 | 40150 ft | 453 kts | 253° |
| 2026-05-06 21:50 | 51.03284 | -44.41989 | 40152 ft | 453 kts | 253° |
| 2026-05-06 21:50 | 51.01013 | -44.51333 | 40155 ft | 452 kts | 253° |
| 2026-05-06 21:51 | 50.98750 | -44.60604 | 40155 ft | 452 kts | 253° |
| 2026-05-06 21:51 | 50.96462 | -44.69936 | 40156 ft | 452 kts | 253° |
| 2026-05-06 21:52 | 50.94176 | -44.79219 | 40158 ft | 451 kts | 252° |
| 2026-05-06 21:52 | 50.91894 | -44.88450 | 40150 ft | 451 kts | 252° |
| 2026-05-06 21:53 | 50.89593 | -44.97722 | 40151 ft | 451 kts | 252° |
| 2026-05-06 21:53 | 50.87303 | -45.06906 | 40163 ft | 450 kts | 252° |
| 2026-05-06 21:54 | 50.85002 | -45.16098 | 40163 ft | 450 kts | 252° |
| 2026-05-06 21:54 | 50.82686 | -45.25311 | 40161 ft | 449 kts | 252° |
| 2026-05-06 21:55 | 50.80384 | -45.34431 | 40163 ft | 449 kts | 252° |
| 2026-05-06 21:55 | 50.78063 | -45.43591 | 40155 ft | 448 kts | 252° |
| 2026-05-06 21:56 | 50.75732 | -45.52752 | 40155 ft | 447 kts | 252° |
| 2026-05-06 21:56 | 50.73421 | -45.61796 | 40157 ft | 446 kts | 251° |
| 2026-05-06 21:57 | 50.71091 | -45.70881 | 40157 ft | 445 kts | 251° |
| 2026-05-06 21:57 | 50.68756 | -45.79949 | 40157 ft | 445 kts | 251° |
| 2026-05-06 21:58 | 50.66438 | -45.88910 | 40160 ft | 444 kts | 251° |
| 2026-05-06 21:58 | 50.64476 | -45.96473 | 40154 ft | 443 kts | 251° |
| 2026-05-06 21:59 | 50.61762 | -46.06888 | 40156 ft | 443 kts | 251° |
| 2026-05-06 21:59 | 50.59415 | -46.15857 | 40153 ft | 442 kts | 251° |
| 2026-05-06 22:00 | 50.57466 | -46.23282 | 40158 ft | 442 kts | 251° |
| 2026-05-06 22:00 | 50.55103 | -46.32249 | 40158 ft | 442 kts | 251° |
| 2026-05-06 22:01 | 50.52755 | -46.41123 | 40159 ft | 442 kts | 251° |
| 2026-05-06 22:01 | 50.50383 | -46.50052 | 40161 ft | 441 kts | 250° |
| 2026-05-06 22:02 | 50.48021 | -46.58912 | 40157 ft | 441 kts | 250° |
| 2026-05-06 22:02 | 50.45651 | -46.67767 | 40158 ft | 441 kts | 250° |
| 2026-05-06 22:03 | 50.43265 | -46.76648 | 40158 ft | 441 kts | 250° |
| 2026-05-06 22:03 | 50.40875 | -46.85511 | 40156 ft | 441 kts | 250° |
| 2026-05-06 22:04 | 50.38480 | -46.94356 | 40159 ft | 441 kts | 250° |
| 2026-05-06 22:04 | 50.36080 | -47.03185 | 40162 ft | 440 kts | 250° |
| 2026-05-06 22:05 | 50.33684 | -47.11969 | 40165 ft | 441 kts | 250° |
| 2026-05-06 22:05 | 50.31265 | -47.20804 | 40162 ft | 441 kts | 250° |
| 2026-05-06 22:06 | 50.28846 | -47.29604 | 40161 ft | 441 kts | 249° |
| 2026-05-06 22:06 | 50.26413 | -47.38422 | 40167 ft | 441 kts | 249° |
| 2026-05-06 22:07 | 50.23991 | -47.47168 | 40165 ft | 441 kts | 249° |
| 2026-05-06 22:07 | 50.21542 | -47.55978 | 40163 ft | 441 kts | 249° |
| 2026-05-06 22:08 | 50.19094 | -47.64751 | 40171 ft | 442 kts | 249° |
| 2026-05-06 22:08 | 50.16633 | -47.73540 | 40169 ft | 442 kts | 249° |
| 2026-05-06 22:09 | 50.14175 | -47.82283 | 40170 ft | 442 kts | 249° |
| 2026-05-06 22:09 | 50.11695 | -47.91072 | 40168 ft | 442 kts | 249° |
| 2026-05-06 22:10 | 50.09211 | -47.99842 | 40170 ft | 442 kts | 249° |
| 2026-05-06 22:10 | 50.06738 | -48.08543 | 40167 ft | 442 kts | 248° |
| 2026-05-06 22:11 | 50.04239 | -48.17305 | 40167 ft | 442 kts | 248° |
| 2026-05-06 22:11 | 50.01735 | -48.26049 | 40167 ft | 442 kts | 248° |
| 2026-05-06 22:12 | 49.99228 | -48.34771 | 40173 ft | 443 kts | 248° |
| 2026-05-06 22:12 | 49.96704 | -48.43523 | 40179 ft | 442 kts | 248° |
| 2026-05-06 22:13 | 49.94186 | -48.52221 | 40173 ft | 443 kts | 248° |
| 2026-05-06 22:13 | 49.91658 | -48.60924 | 40176 ft | 442 kts | 248° |
| 2026-05-06 22:14 | 49.89129 | -48.69596 | 40174 ft | 442 kts | 248° |
| 2026-05-06 22:14 | 49.86576 | -48.78318 | 40180 ft | 442 kts | 248° |
| 2026-05-06 22:15 | 49.84031 | -48.86983 | 40175 ft | 442 kts | 247° |
| 2026-05-06 22:15 | 49.81475 | -48.95655 | 40182 ft | 442 kts | 247° |
| 2026-05-06 22:16 | 49.78922 | -49.04288 | 40178 ft | 442 kts | 247° |
| 2026-05-06 22:16 | 49.76358 | -49.12922 | 40186 ft | 442 kts | 247° |
| 2026-05-06 22:17 | 49.73776 | -49.21590 | 40183 ft | 443 kts | 247° |
| 2026-05-06 22:17 | 49.71210 | -49.30174 | 40189 ft | 443 kts | 247° |
| 2026-05-06 22:18 | 49.68609 | -49.38842 | 40170 ft | 443 kts | 247° |
| 2026-05-06 22:18 | 49.66022 | -49.47434 | 40175 ft | 444 kts | 246° |
| 2026-05-06 22:19 | 49.63399 | -49.56117 | 40175 ft | 444 kts | 246° |
| 2026-05-06 22:19 | 49.60799 | -49.64690 | 40197 ft | 444 kts | 246° |
| 2026-05-06 22:20 | 49.58173 | -49.73321 | 40178 ft | 445 kts | 246° |
| 2026-05-06 22:20 | 49.55533 | -49.81967 | 40185 ft | 445 kts | 246° |
| 2026-05-06 22:21 | 49.52889 | -49.90603 | 40184 ft | 446 kts | 246° |
| 2026-05-06 22:21 | 49.50240 | -49.99244 | 40189 ft | 446 kts | 247° |
| 2026-05-06 22:22 | 49.47996 | -50.08128 | 40192 ft | 446 kts | 251° |
| 2026-05-06 22:22 | 49.45871 | -50.17086 | 40188 ft | 446 kts | 251° |
| 2026-05-06 22:23 | 49.43743 | -50.25986 | 40184 ft | 447 kts | 251° |
| 2026-05-06 22:23 | 49.41579 | -50.34945 | 40191 ft | 447 kts | 251° |
| 2026-05-06 22:24 | 49.39957 | -50.41615 | 40188 ft | 448 kts | 251° |